<?xml version="1.0" encoding="UTF-8" standalone="no" ?>
<gpx xmlns="http://www.topografix.com/GPX/1/1" xmlns:xsi="http://www.w3.org/2001/XMLSchema-instance" xsi:schemaLocation="http://www.topografix.com/GPX/1/1 http://www.topografix.com/GPX/1/1/gpx.xsd" version="1.1" creator="VisuGPX - https://www.visugpx.com">
  <metadata>
    <name>pr14 labatie d\'andaure/vallee du doux</name>
    <desc><![CDATA[bon balisage cependant attention au réservoir et relais telecom mauvaise direction mauvais balisage jusqu%u2019à la route attention au chien bosas]]></desc>
  </metadata>
  <trk>
    <name><![CDATA[Tracé 8 déc. 2015 09:19:12]]></name>
    <trkseg>
      <trkpt lat="44.99547" lon="4.51676">
        <ele>392</ele>
        <time>2015-12-08T08:19:12Z</time>
      </trkpt>
      <trkpt lat="44.99554" lon="4.51679">
        <ele>402</ele>
        <time>2015-12-08T08:20:42Z</time>
      </trkpt>
      <trkpt lat="44.99561" lon="4.51687">
        <ele>406</ele>
        <time>2015-12-08T08:20:46Z</time>
      </trkpt>
      <trkpt lat="44.9957" lon="4.51698">
        <ele>404</ele>
        <time>2015-12-08T08:20:50Z</time>
      </trkpt>
      <trkpt lat="44.99578" lon="4.51693">
        <ele>404</ele>
        <time>2015-12-08T08:20:53Z</time>
      </trkpt>
      <trkpt lat="44.99591" lon="4.51668">
        <ele>405</ele>
        <time>2015-12-08T08:20:58Z</time>
      </trkpt>
      <trkpt lat="44.99609" lon="4.51651">
        <ele>404</ele>
        <time>2015-12-08T08:21:02Z</time>
      </trkpt>
      <trkpt lat="44.99634" lon="4.51649">
        <ele>402</ele>
        <time>2015-12-08T08:21:06Z</time>
      </trkpt>
      <trkpt lat="44.99659" lon="4.51659">
        <ele>400</ele>
        <time>2015-12-08T08:21:10Z</time>
      </trkpt>
      <trkpt lat="44.9968" lon="4.51667">
        <ele>400</ele>
        <time>2015-12-08T08:21:13Z</time>
      </trkpt>
      <trkpt lat="44.99715" lon="4.51668">
        <ele>400</ele>
        <time>2015-12-08T08:21:18Z</time>
      </trkpt>
      <trkpt lat="44.9973" lon="4.51663">
        <ele>399</ele>
        <time>2015-12-08T08:21:21Z</time>
      </trkpt>
      <trkpt lat="44.99758" lon="4.51642">
        <ele>397</ele>
        <time>2015-12-08T08:21:25Z</time>
      </trkpt>
      <trkpt lat="44.99784" lon="4.51617">
        <ele>396</ele>
        <time>2015-12-08T08:21:29Z</time>
      </trkpt>
      <trkpt lat="44.99819" lon="4.51595">
        <ele>394</ele>
        <time>2015-12-08T08:21:34Z</time>
      </trkpt>
      <trkpt lat="44.99848" lon="4.51611">
        <ele>392</ele>
        <time>2015-12-08T08:21:38Z</time>
      </trkpt>
      <trkpt lat="44.99877" lon="4.5163">
        <ele>391</ele>
        <time>2015-12-08T08:21:43Z</time>
      </trkpt>
      <trkpt lat="44.99901" lon="4.51646">
        <ele>390</ele>
        <time>2015-12-08T08:21:48Z</time>
      </trkpt>
      <trkpt lat="44.99913" lon="4.51653">
        <ele>389</ele>
        <time>2015-12-08T08:21:52Z</time>
      </trkpt>
      <trkpt lat="44.9992" lon="4.51657">
        <ele>390</ele>
        <time>2015-12-08T08:22:57Z</time>
      </trkpt>
      <trkpt lat="44.9993" lon="4.51655">
        <ele>390</ele>
        <time>2015-12-08T08:23:01Z</time>
      </trkpt>
      <trkpt lat="44.99938" lon="4.51651">
        <ele>390</ele>
        <time>2015-12-08T08:23:04Z</time>
      </trkpt>
      <trkpt lat="44.99948" lon="4.51643">
        <ele>390</ele>
        <time>2015-12-08T08:23:07Z</time>
      </trkpt>
      <trkpt lat="44.99959" lon="4.51627">
        <ele>390</ele>
        <time>2015-12-08T08:23:11Z</time>
      </trkpt>
      <trkpt lat="44.99969" lon="4.5161">
        <ele>391</ele>
        <time>2015-12-08T08:23:15Z</time>
      </trkpt>
      <trkpt lat="44.9998" lon="4.51598">
        <ele>393</ele>
        <time>2015-12-08T08:23:19Z</time>
      </trkpt>
      <trkpt lat="44.99993" lon="4.51587">
        <ele>394</ele>
        <time>2015-12-08T08:23:24Z</time>
      </trkpt>
      <trkpt lat="45.00004" lon="4.51577">
        <ele>396</ele>
        <time>2015-12-08T08:23:28Z</time>
      </trkpt>
      <trkpt lat="45.00016" lon="4.51563">
        <ele>397</ele>
        <time>2015-12-08T08:23:32Z</time>
      </trkpt>
      <trkpt lat="45.00027" lon="4.51545">
        <ele>397</ele>
        <time>2015-12-08T08:23:37Z</time>
      </trkpt>
      <trkpt lat="45.00034" lon="4.51534">
        <ele>397</ele>
        <time>2015-12-08T08:23:40Z</time>
      </trkpt>
      <trkpt lat="45.0004" lon="4.51523">
        <ele>398</ele>
        <time>2015-12-08T08:23:43Z</time>
      </trkpt>
      <trkpt lat="45.00048" lon="4.51508">
        <ele>399</ele>
        <time>2015-12-08T08:23:47Z</time>
      </trkpt>
      <trkpt lat="45.00059" lon="4.51495">
        <ele>399</ele>
        <time>2015-12-08T08:23:51Z</time>
      </trkpt>
      <trkpt lat="45.0007" lon="4.51484">
        <ele>400</ele>
        <time>2015-12-08T08:23:55Z</time>
      </trkpt>
      <trkpt lat="45.00081" lon="4.51474">
        <ele>400</ele>
        <time>2015-12-08T08:23:59Z</time>
      </trkpt>
      <trkpt lat="45.00094" lon="4.51468">
        <ele>401</ele>
        <time>2015-12-08T08:24:03Z</time>
      </trkpt>
      <trkpt lat="45.0011" lon="4.51461">
        <ele>402</ele>
        <time>2015-12-08T08:24:08Z</time>
      </trkpt>
      <trkpt lat="45.0012" lon="4.51452">
        <ele>402</ele>
        <time>2015-12-08T08:24:12Z</time>
      </trkpt>
      <trkpt lat="45.00133" lon="4.5144">
        <ele>403</ele>
        <time>2015-12-08T08:24:16Z</time>
      </trkpt>
      <trkpt lat="45.00146" lon="4.51425">
        <ele>404</ele>
        <time>2015-12-08T08:24:21Z</time>
      </trkpt>
      <trkpt lat="45.00157" lon="4.51409">
        <ele>405</ele>
        <time>2015-12-08T08:24:25Z</time>
      </trkpt>
      <trkpt lat="45.00167" lon="4.51396">
        <ele>406</ele>
        <time>2015-12-08T08:24:29Z</time>
      </trkpt>
      <trkpt lat="45.00178" lon="4.5138">
        <ele>407</ele>
        <time>2015-12-08T08:24:33Z</time>
      </trkpt>
      <trkpt lat="45.00187" lon="4.51363">
        <ele>408</ele>
        <time>2015-12-08T08:24:37Z</time>
      </trkpt>
      <trkpt lat="45.00196" lon="4.51348">
        <ele>409</ele>
        <time>2015-12-08T08:24:41Z</time>
      </trkpt>
      <trkpt lat="45.00207" lon="4.51331">
        <ele>410</ele>
        <time>2015-12-08T08:24:45Z</time>
      </trkpt>
      <trkpt lat="45.00216" lon="4.51316">
        <ele>410</ele>
        <time>2015-12-08T08:24:48Z</time>
      </trkpt>
      <trkpt lat="45.00231" lon="4.51288">
        <ele>411</ele>
        <time>2015-12-08T08:24:53Z</time>
      </trkpt>
      <trkpt lat="45.00253" lon="4.51253">
        <ele>411</ele>
        <time>2015-12-08T08:24:58Z</time>
      </trkpt>
      <trkpt lat="45.00286" lon="4.51226">
        <ele>412</ele>
        <time>2015-12-08T08:25:03Z</time>
      </trkpt>
      <trkpt lat="45.00311" lon="4.512">
        <ele>412</ele>
        <time>2015-12-08T08:25:07Z</time>
      </trkpt>
      <trkpt lat="45.00329" lon="4.51166">
        <ele>413</ele>
        <time>2015-12-08T08:25:11Z</time>
      </trkpt>
      <trkpt lat="45.00348" lon="4.51131">
        <ele>413</ele>
        <time>2015-12-08T08:25:16Z</time>
      </trkpt>
      <trkpt lat="45.00363" lon="4.51108">
        <ele>412</ele>
        <time>2015-12-08T08:25:20Z</time>
      </trkpt>
      <trkpt lat="45.00381" lon="4.51077">
        <ele>411</ele>
        <time>2015-12-08T08:25:25Z</time>
      </trkpt>
      <trkpt lat="45.00393" lon="4.5106">
        <ele>411</ele>
        <time>2015-12-08T08:25:28Z</time>
      </trkpt>
      <trkpt lat="45.0041" lon="4.51033">
        <ele>411</ele>
        <time>2015-12-08T08:25:32Z</time>
      </trkpt>
      <trkpt lat="45.00427" lon="4.50999">
        <ele>411</ele>
        <time>2015-12-08T08:25:37Z</time>
      </trkpt>
      <trkpt lat="45.00437" lon="4.50977">
        <ele>411</ele>
        <time>2015-12-08T08:25:40Z</time>
      </trkpt>
      <trkpt lat="45.00448" lon="4.50946">
        <ele>411</ele>
        <time>2015-12-08T08:25:44Z</time>
      </trkpt>
      <trkpt lat="45.00456" lon="4.50924">
        <ele>411</ele>
        <time>2015-12-08T08:25:47Z</time>
      </trkpt>
      <trkpt lat="45.00467" lon="4.50895">
        <ele>411</ele>
        <time>2015-12-08T08:25:51Z</time>
      </trkpt>
      <trkpt lat="45.00477" lon="4.50869">
        <ele>410</ele>
        <time>2015-12-08T08:25:55Z</time>
      </trkpt>
      <trkpt lat="45.00486" lon="4.50852">
        <ele>410</ele>
        <time>2015-12-08T08:25:59Z</time>
      </trkpt>
      <trkpt lat="45.00491" lon="4.5084">
        <ele>410</ele>
        <time>2015-12-08T08:26:02Z</time>
      </trkpt>
      <trkpt lat="45.00495" lon="4.5083">
        <ele>410</ele>
        <time>2015-12-08T08:26:05Z</time>
      </trkpt>
      <trkpt lat="45.00505" lon="4.50815">
        <ele>410</ele>
        <time>2015-12-08T08:26:10Z</time>
      </trkpt>
      <trkpt lat="45.00512" lon="4.50808">
        <ele>410</ele>
        <time>2015-12-08T08:26:13Z</time>
      </trkpt>
      <trkpt lat="45.00522" lon="4.50802">
        <ele>410</ele>
        <time>2015-12-08T08:26:17Z</time>
      </trkpt>
      <trkpt lat="45.00535" lon="4.50799">
        <ele>410</ele>
        <time>2015-12-08T08:26:21Z</time>
      </trkpt>
      <trkpt lat="45.00549" lon="4.50803">
        <ele>410</ele>
        <time>2015-12-08T08:26:25Z</time>
      </trkpt>
      <trkpt lat="45.00564" lon="4.50813">
        <ele>410</ele>
        <time>2015-12-08T08:26:30Z</time>
      </trkpt>
      <trkpt lat="45.00576" lon="4.50823">
        <ele>410</ele>
        <time>2015-12-08T08:26:34Z</time>
      </trkpt>
      <trkpt lat="45.00594" lon="4.50829">
        <ele>411</ele>
        <time>2015-12-08T08:26:39Z</time>
      </trkpt>
      <trkpt lat="45.00606" lon="4.5082">
        <ele>412</ele>
        <time>2015-12-08T08:26:44Z</time>
      </trkpt>
      <trkpt lat="45.0061" lon="4.50807">
        <ele>412</ele>
        <time>2015-12-08T08:26:47Z</time>
      </trkpt>
      <trkpt lat="45.00613" lon="4.50797">
        <ele>412</ele>
        <time>2015-12-08T08:26:52Z</time>
      </trkpt>
      <trkpt lat="45.00613" lon="4.50783">
        <ele>412</ele>
        <time>2015-12-08T08:26:56Z</time>
      </trkpt>
      <trkpt lat="45.0061" lon="4.50768">
        <ele>411</ele>
        <time>2015-12-08T08:27:00Z</time>
      </trkpt>
      <trkpt lat="45.00608" lon="4.50754">
        <ele>411</ele>
        <time>2015-12-08T08:27:04Z</time>
      </trkpt>
      <trkpt lat="45.00609" lon="4.50738">
        <ele>412</ele>
        <time>2015-12-08T08:27:08Z</time>
      </trkpt>
      <trkpt lat="45.00611" lon="4.5072">
        <ele>412</ele>
        <time>2015-12-08T08:27:12Z</time>
      </trkpt>
      <trkpt lat="45.00617" lon="4.50713">
        <ele>412</ele>
        <time>2015-12-08T08:27:15Z</time>
      </trkpt>
      <trkpt lat="45.00626" lon="4.50713">
        <ele>413</ele>
        <time>2015-12-08T08:27:18Z</time>
      </trkpt>
      <trkpt lat="45.00632" lon="4.50725">
        <ele>413</ele>
        <time>2015-12-08T08:27:21Z</time>
      </trkpt>
      <trkpt lat="45.00634" lon="4.5074">
        <ele>414</ele>
        <time>2015-12-08T08:27:26Z</time>
      </trkpt>
      <trkpt lat="45.0064" lon="4.5075">
        <ele>418</ele>
        <time>2015-12-08T08:27:31Z</time>
      </trkpt>
      <trkpt lat="45.00646" lon="4.50752">
        <ele>421</ele>
        <time>2015-12-08T08:27:34Z</time>
      </trkpt>
      <trkpt lat="45.00657" lon="4.50752">
        <ele>423</ele>
        <time>2015-12-08T08:27:39Z</time>
      </trkpt>
      <trkpt lat="45.00665" lon="4.50746">
        <ele>425</ele>
        <time>2015-12-08T08:27:43Z</time>
      </trkpt>
      <trkpt lat="45.00672" lon="4.5074">
        <ele>426</ele>
        <time>2015-12-08T08:27:47Z</time>
      </trkpt>
      <trkpt lat="45.0068" lon="4.50732">
        <ele>428</ele>
        <time>2015-12-08T08:27:52Z</time>
      </trkpt>
      <trkpt lat="45.00688" lon="4.50724">
        <ele>430</ele>
        <time>2015-12-08T08:27:57Z</time>
      </trkpt>
      <trkpt lat="45.00694" lon="4.50716">
        <ele>431</ele>
        <time>2015-12-08T08:28:01Z</time>
      </trkpt>
      <trkpt lat="45.007" lon="4.50709">
        <ele>432</ele>
        <time>2015-12-08T08:28:04Z</time>
      </trkpt>
      <trkpt lat="45.00706" lon="4.50702">
        <ele>433</ele>
        <time>2015-12-08T08:28:07Z</time>
      </trkpt>
      <trkpt lat="45.00716" lon="4.50692">
        <ele>434</ele>
        <time>2015-12-08T08:28:11Z</time>
      </trkpt>
      <trkpt lat="45.00727" lon="4.50681">
        <ele>435</ele>
        <time>2015-12-08T08:28:16Z</time>
      </trkpt>
      <trkpt lat="45.00734" lon="4.50672">
        <ele>436</ele>
        <time>2015-12-08T08:28:20Z</time>
      </trkpt>
      <trkpt lat="45.00739" lon="4.50663">
        <ele>436</ele>
        <time>2015-12-08T08:28:24Z</time>
      </trkpt>
      <trkpt lat="45.00744" lon="4.50655">
        <ele>437</ele>
        <time>2015-12-08T08:28:27Z</time>
      </trkpt>
      <trkpt lat="45.00748" lon="4.50647">
        <ele>437</ele>
        <time>2015-12-08T08:28:30Z</time>
      </trkpt>
      <trkpt lat="45.00755" lon="4.50636">
        <ele>438</ele>
        <time>2015-12-08T08:28:34Z</time>
      </trkpt>
      <trkpt lat="45.00761" lon="4.50623">
        <ele>439</ele>
        <time>2015-12-08T08:28:38Z</time>
      </trkpt>
      <trkpt lat="45.00766" lon="4.50614">
        <ele>440</ele>
        <time>2015-12-08T08:28:41Z</time>
      </trkpt>
      <trkpt lat="45.0077" lon="4.50604">
        <ele>441</ele>
        <time>2015-12-08T08:28:44Z</time>
      </trkpt>
      <trkpt lat="45.00774" lon="4.50596">
        <ele>442</ele>
        <time>2015-12-08T08:28:48Z</time>
      </trkpt>
      <trkpt lat="45.00778" lon="4.50586">
        <ele>443</ele>
        <time>2015-12-08T08:28:54Z</time>
      </trkpt>
      <trkpt lat="45.00782" lon="4.50575">
        <ele>443</ele>
        <time>2015-12-08T08:28:59Z</time>
      </trkpt>
      <trkpt lat="45.00789" lon="4.50563">
        <ele>444</ele>
        <time>2015-12-08T08:29:03Z</time>
      </trkpt>
      <trkpt lat="45.00794" lon="4.50555">
        <ele>445</ele>
        <time>2015-12-08T08:29:08Z</time>
      </trkpt>
      <trkpt lat="45.00798" lon="4.50546">
        <ele>445</ele>
        <time>2015-12-08T08:29:13Z</time>
      </trkpt>
      <trkpt lat="45.00806" lon="4.5053">
        <ele>446</ele>
        <time>2015-12-08T08:29:17Z</time>
      </trkpt>
      <trkpt lat="45.00811" lon="4.50523">
        <ele>446</ele>
        <time>2015-12-08T08:29:20Z</time>
      </trkpt>
      <trkpt lat="45.00816" lon="4.50512">
        <ele>447</ele>
        <time>2015-12-08T08:29:25Z</time>
      </trkpt>
      <trkpt lat="45.00818" lon="4.50502">
        <ele>448</ele>
        <time>2015-12-08T08:29:29Z</time>
      </trkpt>
      <trkpt lat="45.00824" lon="4.50489">
        <ele>449</ele>
        <time>2015-12-08T08:29:34Z</time>
      </trkpt>
      <trkpt lat="45.00828" lon="4.5048">
        <ele>450</ele>
        <time>2015-12-08T08:29:38Z</time>
      </trkpt>
      <trkpt lat="45.00833" lon="4.50469">
        <ele>451</ele>
        <time>2015-12-08T08:29:42Z</time>
      </trkpt>
      <trkpt lat="45.00838" lon="4.50456">
        <ele>451</ele>
        <time>2015-12-08T08:29:46Z</time>
      </trkpt>
      <trkpt lat="45.00842" lon="4.50445">
        <ele>452</ele>
        <time>2015-12-08T08:29:51Z</time>
      </trkpt>
      <trkpt lat="45.00844" lon="4.50438">
        <ele>453</ele>
        <time>2015-12-08T08:29:56Z</time>
      </trkpt>
      <trkpt lat="45.00848" lon="4.50427">
        <ele>454</ele>
        <time>2015-12-08T08:30:00Z</time>
      </trkpt>
      <trkpt lat="45.0085" lon="4.50416">
        <ele>455</ele>
        <time>2015-12-08T08:30:04Z</time>
      </trkpt>
      <trkpt lat="45.00851" lon="4.50406">
        <ele>456</ele>
        <time>2015-12-08T08:30:08Z</time>
      </trkpt>
      <trkpt lat="45.00853" lon="4.50398">
        <ele>457</ele>
        <time>2015-12-08T08:30:11Z</time>
      </trkpt>
      <trkpt lat="45.00856" lon="4.50385">
        <ele>458</ele>
        <time>2015-12-08T08:30:15Z</time>
      </trkpt>
      <trkpt lat="45.0086" lon="4.5036">
        <ele>459</ele>
        <time>2015-12-08T08:30:19Z</time>
      </trkpt>
      <trkpt lat="45.00867" lon="4.50324">
        <ele>459</ele>
        <time>2015-12-08T08:30:24Z</time>
      </trkpt>
      <trkpt lat="45.00879" lon="4.50301">
        <ele>460</ele>
        <time>2015-12-08T08:30:28Z</time>
      </trkpt>
      <trkpt lat="45.00894" lon="4.5028">
        <ele>460</ele>
        <time>2015-12-08T08:30:32Z</time>
      </trkpt>
      <trkpt lat="45.00906" lon="4.50265">
        <ele>460</ele>
        <time>2015-12-08T08:30:35Z</time>
      </trkpt>
      <trkpt lat="45.00926" lon="4.50249">
        <ele>461</ele>
        <time>2015-12-08T08:30:39Z</time>
      </trkpt>
      <trkpt lat="45.00945" lon="4.50235">
        <ele>461</ele>
        <time>2015-12-08T08:30:43Z</time>
      </trkpt>
      <trkpt lat="45.00967" lon="4.50233">
        <ele>459</ele>
        <time>2015-12-08T08:30:48Z</time>
      </trkpt>
      <trkpt lat="45.00979" lon="4.50253">
        <ele>456</ele>
        <time>2015-12-08T08:30:53Z</time>
      </trkpt>
      <trkpt lat="45.00994" lon="4.5026">
        <ele>455</ele>
        <time>2015-12-08T08:30:57Z</time>
      </trkpt>
      <trkpt lat="45.01013" lon="4.50259">
        <ele>454</ele>
        <time>2015-12-08T08:31:01Z</time>
      </trkpt>
      <trkpt lat="45.01032" lon="4.50264">
        <ele>453</ele>
        <time>2015-12-08T08:31:05Z</time>
      </trkpt>
      <trkpt lat="45.01044" lon="4.50271">
        <ele>453</ele>
        <time>2015-12-08T08:31:08Z</time>
      </trkpt>
      <trkpt lat="45.01062" lon="4.5028">
        <ele>452</ele>
        <time>2015-12-08T08:31:13Z</time>
      </trkpt>
      <trkpt lat="45.01067" lon="4.50262">
        <ele>451</ele>
        <time>2015-12-08T08:31:18Z</time>
      </trkpt>
      <trkpt lat="45.0106" lon="4.50245">
        <ele>451</ele>
        <time>2015-12-08T08:31:22Z</time>
      </trkpt>
      <trkpt lat="45.01057" lon="4.50233">
        <ele>451</ele>
        <time>2015-12-08T08:31:25Z</time>
      </trkpt>
      <trkpt lat="45.01055" lon="4.50213">
        <ele>452</ele>
        <time>2015-12-08T08:31:29Z</time>
      </trkpt>
      <trkpt lat="45.01056" lon="4.50187">
        <ele>452</ele>
        <time>2015-12-08T08:31:33Z</time>
      </trkpt>
      <trkpt lat="45.01055" lon="4.50155">
        <ele>452</ele>
        <time>2015-12-08T08:31:38Z</time>
      </trkpt>
      <trkpt lat="45.01057" lon="4.50138">
        <ele>452</ele>
        <time>2015-12-08T08:31:41Z</time>
      </trkpt>
      <trkpt lat="45.01062" lon="4.50115">
        <ele>452</ele>
        <time>2015-12-08T08:31:45Z</time>
      </trkpt>
      <trkpt lat="45.01072" lon="4.50089">
        <ele>452</ele>
        <time>2015-12-08T08:31:49Z</time>
      </trkpt>
      <trkpt lat="45.01079" lon="4.50072">
        <ele>452</ele>
        <time>2015-12-08T08:31:52Z</time>
      </trkpt>
      <trkpt lat="45.0109" lon="4.50042">
        <ele>452</ele>
        <time>2015-12-08T08:31:57Z</time>
      </trkpt>
      <trkpt lat="45.01094" lon="4.50022">
        <ele>452</ele>
        <time>2015-12-08T08:32:01Z</time>
      </trkpt>
      <trkpt lat="45.01098" lon="4.50006">
        <ele>452</ele>
        <time>2015-12-08T08:32:05Z</time>
      </trkpt>
      <trkpt lat="45.01103" lon="4.49991">
        <ele>452</ele>
        <time>2015-12-08T08:32:09Z</time>
      </trkpt>
      <trkpt lat="45.0111" lon="4.49972">
        <ele>452</ele>
        <time>2015-12-08T08:32:13Z</time>
      </trkpt>
      <trkpt lat="45.01115" lon="4.49957">
        <ele>453</ele>
        <time>2015-12-08T08:32:16Z</time>
      </trkpt>
      <trkpt lat="45.01123" lon="4.49936">
        <ele>452</ele>
        <time>2015-12-08T08:32:20Z</time>
      </trkpt>
      <trkpt lat="45.01128" lon="4.4992">
        <ele>452</ele>
        <time>2015-12-08T08:32:23Z</time>
      </trkpt>
      <trkpt lat="45.01134" lon="4.49894">
        <ele>451</ele>
        <time>2015-12-08T08:32:28Z</time>
      </trkpt>
      <trkpt lat="45.01139" lon="4.49881">
        <ele>451</ele>
        <time>2015-12-08T08:32:31Z</time>
      </trkpt>
      <trkpt lat="45.01153" lon="4.49867">
        <ele>452</ele>
        <time>2015-12-08T08:32:35Z</time>
      </trkpt>
      <trkpt lat="45.0117" lon="4.49858">
        <ele>452</ele>
        <time>2015-12-08T08:32:40Z</time>
      </trkpt>
      <trkpt lat="45.01184" lon="4.49854">
        <ele>453</ele>
        <time>2015-12-08T08:32:43Z</time>
      </trkpt>
      <trkpt lat="45.01201" lon="4.49852">
        <ele>454</ele>
        <time>2015-12-08T08:32:47Z</time>
      </trkpt>
      <trkpt lat="45.01227" lon="4.49855">
        <ele>454</ele>
        <time>2015-12-08T08:32:52Z</time>
      </trkpt>
      <trkpt lat="45.01249" lon="4.49845">
        <ele>454</ele>
        <time>2015-12-08T08:32:57Z</time>
      </trkpt>
      <trkpt lat="45.01268" lon="4.49835">
        <ele>454</ele>
        <time>2015-12-08T08:33:01Z</time>
      </trkpt>
      <trkpt lat="45.01286" lon="4.49826">
        <ele>454</ele>
        <time>2015-12-08T08:33:05Z</time>
      </trkpt>
      <trkpt lat="45.01312" lon="4.49819">
        <ele>454</ele>
        <time>2015-12-08T08:33:10Z</time>
      </trkpt>
      <trkpt lat="45.01324" lon="4.49814">
        <ele>453</ele>
        <time>2015-12-08T08:33:13Z</time>
      </trkpt>
      <trkpt lat="45.01335" lon="4.49807">
        <ele>453</ele>
        <time>2015-12-08T08:33:17Z</time>
      </trkpt>
      <trkpt lat="45.01358" lon="4.49799">
        <ele>454</ele>
        <time>2015-12-08T08:33:22Z</time>
      </trkpt>
      <trkpt lat="45.01383" lon="4.49787">
        <ele>454</ele>
        <time>2015-12-08T08:33:27Z</time>
      </trkpt>
      <trkpt lat="45.01396" lon="4.49784">
        <ele>454</ele>
        <time>2015-12-08T08:33:32Z</time>
      </trkpt>
      <trkpt lat="45.01403" lon="4.49782">
        <ele>454</ele>
        <time>2015-12-08T08:33:35Z</time>
      </trkpt>
      <trkpt lat="45.01412" lon="4.4978">
        <ele>454</ele>
        <time>2015-12-08T08:33:39Z</time>
      </trkpt>
      <trkpt lat="45.01421" lon="4.49779">
        <ele>453</ele>
        <time>2015-12-08T08:33:43Z</time>
      </trkpt>
      <trkpt lat="45.0143" lon="4.49779">
        <ele>453</ele>
        <time>2015-12-08T08:33:47Z</time>
      </trkpt>
      <trkpt lat="45.0144" lon="4.49777">
        <ele>453</ele>
        <time>2015-12-08T08:33:52Z</time>
      </trkpt>
      <trkpt lat="45.01451" lon="4.49776">
        <ele>452</ele>
        <time>2015-12-08T08:33:56Z</time>
      </trkpt>
      <trkpt lat="45.01459" lon="4.49777">
        <ele>449</ele>
        <time>2015-12-08T08:34:00Z</time>
      </trkpt>
      <trkpt lat="45.0147" lon="4.4978">
        <ele>447</ele>
        <time>2015-12-08T08:34:05Z</time>
      </trkpt>
      <trkpt lat="45.01479" lon="4.49781">
        <ele>448</ele>
        <time>2015-12-08T08:34:09Z</time>
      </trkpt>
      <trkpt lat="45.01488" lon="4.49784">
        <ele>448</ele>
        <time>2015-12-08T08:36:47Z</time>
      </trkpt>
      <trkpt lat="45.01492" lon="4.49779">
        <ele>448</ele>
        <time>2015-12-08T08:39:27Z</time>
      </trkpt>
      <trkpt lat="45.01482" lon="4.49782">
        <ele>446</ele>
        <time>2015-12-08T08:39:32Z</time>
      </trkpt>
      <trkpt lat="45.01482" lon="4.49782">
        <ele>446</ele>
        <time>2015-12-08T08:42:16Z</time>
      </trkpt>
      <trkpt lat="45.01492" lon="4.49778">
        <ele>449</ele>
        <time>2015-12-08T08:42:20Z</time>
      </trkpt>
      <trkpt lat="45.01494" lon="4.49783">
        <ele>448</ele>
        <time>2015-12-08T08:43:16Z</time>
      </trkpt>
      <trkpt lat="45.01505" lon="4.49792">
        <ele>448</ele>
        <time>2015-12-08T08:43:21Z</time>
      </trkpt>
      <trkpt lat="45.01515" lon="4.49797">
        <ele>448</ele>
        <time>2015-12-08T08:43:26Z</time>
      </trkpt>
      <trkpt lat="45.01522" lon="4.498">
        <ele>448</ele>
        <time>2015-12-08T08:43:29Z</time>
      </trkpt>
      <trkpt lat="45.01527" lon="4.49804">
        <ele>449</ele>
        <time>2015-12-08T08:43:32Z</time>
      </trkpt>
      <trkpt lat="45.01533" lon="4.4981">
        <ele>450</ele>
        <time>2015-12-08T08:43:36Z</time>
      </trkpt>
      <trkpt lat="45.01539" lon="4.49816">
        <ele>451</ele>
        <time>2015-12-08T08:43:40Z</time>
      </trkpt>
      <trkpt lat="45.01548" lon="4.49822">
        <ele>452</ele>
        <time>2015-12-08T08:43:45Z</time>
      </trkpt>
      <trkpt lat="45.01555" lon="4.49827">
        <ele>453</ele>
        <time>2015-12-08T08:43:49Z</time>
      </trkpt>
      <trkpt lat="45.0156" lon="4.49831">
        <ele>455</ele>
        <time>2015-12-08T08:43:52Z</time>
      </trkpt>
      <trkpt lat="45.0157" lon="4.49838">
        <ele>456</ele>
        <time>2015-12-08T08:43:57Z</time>
      </trkpt>
      <trkpt lat="45.01575" lon="4.49841">
        <ele>457</ele>
        <time>2015-12-08T08:44:00Z</time>
      </trkpt>
      <trkpt lat="45.01582" lon="4.49845">
        <ele>458</ele>
        <time>2015-12-08T08:44:04Z</time>
      </trkpt>
      <trkpt lat="45.0159" lon="4.49851">
        <ele>459</ele>
        <time>2015-12-08T08:44:08Z</time>
      </trkpt>
      <trkpt lat="45.01598" lon="4.49857">
        <ele>461</ele>
        <time>2015-12-08T08:44:13Z</time>
      </trkpt>
      <trkpt lat="45.01604" lon="4.49863">
        <ele>463</ele>
        <time>2015-12-08T08:44:17Z</time>
      </trkpt>
      <trkpt lat="45.01611" lon="4.49871">
        <ele>465</ele>
        <time>2015-12-08T08:44:22Z</time>
      </trkpt>
      <trkpt lat="45.01618" lon="4.49883">
        <ele>466</ele>
        <time>2015-12-08T08:44:27Z</time>
      </trkpt>
      <trkpt lat="45.0162" lon="4.49892">
        <ele>467</ele>
        <time>2015-12-08T08:44:31Z</time>
      </trkpt>
      <trkpt lat="45.01626" lon="4.49904">
        <ele>469</ele>
        <time>2015-12-08T08:44:36Z</time>
      </trkpt>
      <trkpt lat="45.01629" lon="4.49912">
        <ele>470</ele>
        <time>2015-12-08T08:44:39Z</time>
      </trkpt>
      <trkpt lat="45.01633" lon="4.49922">
        <ele>471</ele>
        <time>2015-12-08T08:44:43Z</time>
      </trkpt>
      <trkpt lat="45.01637" lon="4.49931">
        <ele>472</ele>
        <time>2015-12-08T08:44:47Z</time>
      </trkpt>
      <trkpt lat="45.01642" lon="4.49941">
        <ele>472</ele>
        <time>2015-12-08T08:44:51Z</time>
      </trkpt>
      <trkpt lat="45.01646" lon="4.49955">
        <ele>473</ele>
        <time>2015-12-08T08:44:56Z</time>
      </trkpt>
      <trkpt lat="45.0165" lon="4.49964">
        <ele>473</ele>
        <time>2015-12-08T08:45:00Z</time>
      </trkpt>
      <trkpt lat="45.01654" lon="4.49973">
        <ele>474</ele>
        <time>2015-12-08T08:45:04Z</time>
      </trkpt>
      <trkpt lat="45.01659" lon="4.49983">
        <ele>474</ele>
        <time>2015-12-08T08:45:08Z</time>
      </trkpt>
      <trkpt lat="45.01664" lon="4.49994">
        <ele>475</ele>
        <time>2015-12-08T08:45:12Z</time>
      </trkpt>
      <trkpt lat="45.01666" lon="4.50003">
        <ele>476</ele>
        <time>2015-12-08T08:45:16Z</time>
      </trkpt>
      <trkpt lat="45.01668" lon="4.50012">
        <ele>477</ele>
        <time>2015-12-08T08:45:20Z</time>
      </trkpt>
      <trkpt lat="45.01671" lon="4.5002">
        <ele>478</ele>
        <time>2015-12-08T08:45:24Z</time>
      </trkpt>
      <trkpt lat="45.01675" lon="4.50027">
        <ele>478</ele>
        <time>2015-12-08T08:45:27Z</time>
      </trkpt>
      <trkpt lat="45.01677" lon="4.50037">
        <ele>478</ele>
        <time>2015-12-08T08:45:32Z</time>
      </trkpt>
      <trkpt lat="45.01677" lon="4.50041">
        <ele>478</ele>
        <time>2015-12-08T08:45:34Z</time>
      </trkpt>
      <trkpt lat="45.01675" lon="4.50051">
        <ele>479</ele>
        <time>2015-12-08T08:45:38Z</time>
      </trkpt>
      <trkpt lat="45.01673" lon="4.50061">
        <ele>480</ele>
        <time>2015-12-08T08:45:42Z</time>
      </trkpt>
      <trkpt lat="45.01674" lon="4.50073">
        <ele>481</ele>
        <time>2015-12-08T08:45:46Z</time>
      </trkpt>
      <trkpt lat="45.01679" lon="4.50085">
        <ele>482</ele>
        <time>2015-12-08T08:45:51Z</time>
      </trkpt>
      <trkpt lat="45.01682" lon="4.50095">
        <ele>484</ele>
        <time>2015-12-08T08:45:56Z</time>
      </trkpt>
      <trkpt lat="45.01686" lon="4.50103">
        <ele>486</ele>
        <time>2015-12-08T08:46:01Z</time>
      </trkpt>
      <trkpt lat="45.0169" lon="4.5011">
        <ele>487</ele>
        <time>2015-12-08T08:46:06Z</time>
      </trkpt>
      <trkpt lat="45.01694" lon="4.50117">
        <ele>488</ele>
        <time>2015-12-08T08:46:10Z</time>
      </trkpt>
      <trkpt lat="45.01704" lon="4.50123">
        <ele>490</ele>
        <time>2015-12-08T08:46:15Z</time>
      </trkpt>
      <trkpt lat="45.01715" lon="4.50127">
        <ele>491</ele>
        <time>2015-12-08T08:46:19Z</time>
      </trkpt>
      <trkpt lat="45.01731" lon="4.50135">
        <ele>492</ele>
        <time>2015-12-08T08:46:24Z</time>
      </trkpt>
      <trkpt lat="45.0174" lon="4.5014">
        <ele>492</ele>
        <time>2015-12-08T08:46:27Z</time>
      </trkpt>
      <trkpt lat="45.01752" lon="4.50147">
        <ele>493</ele>
        <time>2015-12-08T08:46:31Z</time>
      </trkpt>
      <trkpt lat="45.01762" lon="4.50153">
        <ele>494</ele>
        <time>2015-12-08T08:46:35Z</time>
      </trkpt>
      <trkpt lat="45.01773" lon="4.5016">
        <ele>495</ele>
        <time>2015-12-08T08:46:39Z</time>
      </trkpt>
      <trkpt lat="45.01789" lon="4.50166">
        <ele>495</ele>
        <time>2015-12-08T08:46:43Z</time>
      </trkpt>
      <trkpt lat="45.01807" lon="4.50167">
        <ele>496</ele>
        <time>2015-12-08T08:46:47Z</time>
      </trkpt>
      <trkpt lat="45.01826" lon="4.50165">
        <ele>496</ele>
        <time>2015-12-08T08:46:51Z</time>
      </trkpt>
      <trkpt lat="45.01841" lon="4.50166">
        <ele>494</ele>
        <time>2015-12-08T08:46:54Z</time>
      </trkpt>
      <trkpt lat="45.01859" lon="4.50171">
        <ele>493</ele>
        <time>2015-12-08T08:46:58Z</time>
      </trkpt>
      <trkpt lat="45.01872" lon="4.50182">
        <ele>491</ele>
        <time>2015-12-08T08:47:02Z</time>
      </trkpt>
      <trkpt lat="45.01885" lon="4.50195">
        <ele>488</ele>
        <time>2015-12-08T08:47:06Z</time>
      </trkpt>
      <trkpt lat="45.01899" lon="4.50206">
        <ele>484</ele>
        <time>2015-12-08T08:47:11Z</time>
      </trkpt>
      <trkpt lat="45.01906" lon="4.50211">
        <ele>482</ele>
        <time>2015-12-08T08:47:14Z</time>
      </trkpt>
      <trkpt lat="45.01916" lon="4.5022">
        <ele>481</ele>
        <time>2015-12-08T08:47:18Z</time>
      </trkpt>
      <trkpt lat="45.01923" lon="4.50228">
        <ele>480</ele>
        <time>2015-12-08T08:47:22Z</time>
      </trkpt>
      <trkpt lat="45.01934" lon="4.50237">
        <ele>475</ele>
        <time>2015-12-08T08:47:26Z</time>
      </trkpt>
      <trkpt lat="45.01943" lon="4.50244">
        <ele>472</ele>
        <time>2015-12-08T08:47:30Z</time>
      </trkpt>
      <trkpt lat="45.01947" lon="4.50253">
        <ele>470</ele>
        <time>2015-12-08T08:47:34Z</time>
      </trkpt>
      <trkpt lat="45.01955" lon="4.50265">
        <ele>467</ele>
        <time>2015-12-08T08:47:38Z</time>
      </trkpt>
      <trkpt lat="45.01965" lon="4.50282">
        <ele>464</ele>
        <time>2015-12-08T08:47:42Z</time>
      </trkpt>
      <trkpt lat="45.01973" lon="4.50291">
        <ele>462</ele>
        <time>2015-12-08T08:47:45Z</time>
      </trkpt>
      <trkpt lat="45.01986" lon="4.50301">
        <ele>459</ele>
        <time>2015-12-08T08:47:49Z</time>
      </trkpt>
      <trkpt lat="45.01998" lon="4.5031">
        <ele>457</ele>
        <time>2015-12-08T08:47:53Z</time>
      </trkpt>
      <trkpt lat="45.02016" lon="4.50323">
        <ele>455</ele>
        <time>2015-12-08T08:47:58Z</time>
      </trkpt>
      <trkpt lat="45.02031" lon="4.50335">
        <ele>452</ele>
        <time>2015-12-08T08:48:02Z</time>
      </trkpt>
      <trkpt lat="45.02043" lon="4.50328">
        <ele>450</ele>
        <time>2015-12-08T08:48:06Z</time>
      </trkpt>
      <trkpt lat="45.02044" lon="4.50304">
        <ele>448</ele>
        <time>2015-12-08T08:48:11Z</time>
      </trkpt>
      <trkpt lat="45.02038" lon="4.50273">
        <ele>447</ele>
        <time>2015-12-08T08:48:16Z</time>
      </trkpt>
      <trkpt lat="45.02036" lon="4.50256">
        <ele>446</ele>
        <time>2015-12-08T08:48:20Z</time>
      </trkpt>
      <trkpt lat="45.02034" lon="4.50247">
        <ele>445</ele>
        <time>2015-12-08T08:48:24Z</time>
      </trkpt>
      <trkpt lat="45.0203" lon="4.50236">
        <ele>445</ele>
        <time>2015-12-08T08:48:30Z</time>
      </trkpt>
      <trkpt lat="45.02025" lon="4.5022">
        <ele>446</ele>
        <time>2015-12-08T08:48:35Z</time>
      </trkpt>
      <trkpt lat="45.02023" lon="4.50212">
        <ele>445</ele>
        <time>2015-12-08T08:48:38Z</time>
      </trkpt>
      <trkpt lat="45.02022" lon="4.50204">
        <ele>445</ele>
        <time>2015-12-08T08:48:41Z</time>
      </trkpt>
      <trkpt lat="45.0202" lon="4.50193">
        <ele>445</ele>
        <time>2015-12-08T08:48:45Z</time>
      </trkpt>
      <trkpt lat="45.0202" lon="4.50182">
        <ele>446</ele>
        <time>2015-12-08T08:48:49Z</time>
      </trkpt>
      <trkpt lat="45.02019" lon="4.50169">
        <ele>445</ele>
        <time>2015-12-08T08:48:54Z</time>
      </trkpt>
      <trkpt lat="45.02014" lon="4.50157">
        <ele>445</ele>
        <time>2015-12-08T08:48:59Z</time>
      </trkpt>
      <trkpt lat="45.02012" lon="4.50148">
        <ele>446</ele>
        <time>2015-12-08T08:49:03Z</time>
      </trkpt>
      <trkpt lat="45.0201" lon="4.50137">
        <ele>446</ele>
        <time>2015-12-08T08:49:07Z</time>
      </trkpt>
      <trkpt lat="45.02008" lon="4.50123">
        <ele>447</ele>
        <time>2015-12-08T08:49:12Z</time>
      </trkpt>
      <trkpt lat="45.02005" lon="4.50111">
        <ele>449</ele>
        <time>2015-12-08T08:49:16Z</time>
      </trkpt>
      <trkpt lat="45.02003" lon="4.50097">
        <ele>450</ele>
        <time>2015-12-08T08:49:21Z</time>
      </trkpt>
      <trkpt lat="45.02" lon="4.50085">
        <ele>452</ele>
        <time>2015-12-08T08:49:26Z</time>
      </trkpt>
      <trkpt lat="45.01998" lon="4.50076">
        <ele>452</ele>
        <time>2015-12-08T08:49:30Z</time>
      </trkpt>
      <trkpt lat="45.01996" lon="4.50064">
        <ele>453</ele>
        <time>2015-12-08T08:49:35Z</time>
      </trkpt>
      <trkpt lat="45.01993" lon="4.50056">
        <ele>454</ele>
        <time>2015-12-08T08:49:38Z</time>
      </trkpt>
      <trkpt lat="45.01987" lon="4.50043">
        <ele>456</ele>
        <time>2015-12-08T08:49:43Z</time>
      </trkpt>
      <trkpt lat="45.01983" lon="4.50035">
        <ele>458</ele>
        <time>2015-12-08T08:49:46Z</time>
      </trkpt>
      <trkpt lat="45.01979" lon="4.50026">
        <ele>461</ele>
        <time>2015-12-08T08:49:50Z</time>
      </trkpt>
      <trkpt lat="45.01976" lon="4.50014">
        <ele>463</ele>
        <time>2015-12-08T08:49:54Z</time>
      </trkpt>
      <trkpt lat="45.01971" lon="4.50001">
        <ele>465</ele>
        <time>2015-12-08T08:49:59Z</time>
      </trkpt>
      <trkpt lat="45.01966" lon="4.49992">
        <ele>466</ele>
        <time>2015-12-08T08:50:02Z</time>
      </trkpt>
      <trkpt lat="45.01962" lon="4.49983">
        <ele>467</ele>
        <time>2015-12-08T08:50:05Z</time>
      </trkpt>
      <trkpt lat="45.01959" lon="4.49974">
        <ele>468</ele>
        <time>2015-12-08T08:50:09Z</time>
      </trkpt>
      <trkpt lat="45.01958" lon="4.49963">
        <ele>469</ele>
        <time>2015-12-08T08:50:17Z</time>
      </trkpt>
      <trkpt lat="45.01958" lon="4.49951">
        <ele>472</ele>
        <time>2015-12-08T08:50:24Z</time>
      </trkpt>
      <trkpt lat="45.01955" lon="4.49941">
        <ele>473</ele>
        <time>2015-12-08T08:50:30Z</time>
      </trkpt>
      <trkpt lat="45.01952" lon="4.4993">
        <ele>475</ele>
        <time>2015-12-08T08:50:38Z</time>
      </trkpt>
      <trkpt lat="45.01948" lon="4.4992">
        <ele>477</ele>
        <time>2015-12-08T08:50:45Z</time>
      </trkpt>
      <trkpt lat="45.01944" lon="4.49913">
        <ele>478</ele>
        <time>2015-12-08T08:50:51Z</time>
      </trkpt>
      <trkpt lat="45.01938" lon="4.49904">
        <ele>480</ele>
        <time>2015-12-08T08:50:58Z</time>
      </trkpt>
      <trkpt lat="45.01935" lon="4.49894">
        <ele>481</ele>
        <time>2015-12-08T08:51:03Z</time>
      </trkpt>
      <trkpt lat="45.01932" lon="4.49883">
        <ele>482</ele>
        <time>2015-12-08T08:51:08Z</time>
      </trkpt>
      <trkpt lat="45.01932" lon="4.49871">
        <ele>483</ele>
        <time>2015-12-08T08:51:14Z</time>
      </trkpt>
      <trkpt lat="45.01929" lon="4.49861">
        <ele>485</ele>
        <time>2015-12-08T08:51:20Z</time>
      </trkpt>
      <trkpt lat="45.01926" lon="4.49853">
        <ele>486</ele>
        <time>2015-12-08T08:51:25Z</time>
      </trkpt>
      <trkpt lat="45.01922" lon="4.49844">
        <ele>488</ele>
        <time>2015-12-08T08:51:30Z</time>
      </trkpt>
      <trkpt lat="45.01919" lon="4.49836">
        <ele>489</ele>
        <time>2015-12-08T08:51:34Z</time>
      </trkpt>
      <trkpt lat="45.01916" lon="4.49825">
        <ele>490</ele>
        <time>2015-12-08T08:51:39Z</time>
      </trkpt>
      <trkpt lat="45.01914" lon="4.49816">
        <ele>492</ele>
        <time>2015-12-08T08:51:48Z</time>
      </trkpt>
      <trkpt lat="45.01911" lon="4.49807">
        <ele>492</ele>
        <time>2015-12-08T08:51:52Z</time>
      </trkpt>
      <trkpt lat="45.01908" lon="4.49793">
        <ele>493</ele>
        <time>2015-12-08T08:51:56Z</time>
      </trkpt>
      <trkpt lat="45.01905" lon="4.49777">
        <ele>494</ele>
        <time>2015-12-08T08:52:00Z</time>
      </trkpt>
      <trkpt lat="45.01903" lon="4.49761">
        <ele>494</ele>
        <time>2015-12-08T08:52:04Z</time>
      </trkpt>
      <trkpt lat="45.01903" lon="4.49741">
        <ele>495</ele>
        <time>2015-12-08T08:52:08Z</time>
      </trkpt>
      <trkpt lat="45.01902" lon="4.49721">
        <ele>496</ele>
        <time>2015-12-08T08:52:12Z</time>
      </trkpt>
      <trkpt lat="45.01901" lon="4.497">
        <ele>496</ele>
        <time>2015-12-08T08:52:16Z</time>
      </trkpt>
      <trkpt lat="45.019" lon="4.49678">
        <ele>496</ele>
        <time>2015-12-08T08:52:20Z</time>
      </trkpt>
      <trkpt lat="45.01903" lon="4.49659">
        <ele>495</ele>
        <time>2015-12-08T08:52:24Z</time>
      </trkpt>
      <trkpt lat="45.01907" lon="4.49646">
        <ele>495</ele>
        <time>2015-12-08T08:52:27Z</time>
      </trkpt>
      <trkpt lat="45.01913" lon="4.49623">
        <ele>495</ele>
        <time>2015-12-08T08:52:32Z</time>
      </trkpt>
      <trkpt lat="45.01919" lon="4.49604">
        <ele>495</ele>
        <time>2015-12-08T08:52:36Z</time>
      </trkpt>
      <trkpt lat="45.01922" lon="4.4959">
        <ele>496</ele>
        <time>2015-12-08T08:52:39Z</time>
      </trkpt>
      <trkpt lat="45.01928" lon="4.49572">
        <ele>496</ele>
        <time>2015-12-08T08:52:43Z</time>
      </trkpt>
      <trkpt lat="45.01938" lon="4.49553">
        <ele>496</ele>
        <time>2015-12-08T08:52:48Z</time>
      </trkpt>
      <trkpt lat="45.01952" lon="4.49536">
        <ele>497</ele>
        <time>2015-12-08T08:52:53Z</time>
      </trkpt>
      <trkpt lat="45.01962" lon="4.49525">
        <ele>496</ele>
        <time>2015-12-08T08:52:56Z</time>
      </trkpt>
      <trkpt lat="45.01976" lon="4.4951">
        <ele>497</ele>
        <time>2015-12-08T08:53:00Z</time>
      </trkpt>
      <trkpt lat="45.01994" lon="4.49497">
        <ele>497</ele>
        <time>2015-12-08T08:53:04Z</time>
      </trkpt>
      <trkpt lat="45.02021" lon="4.49501">
        <ele>496</ele>
        <time>2015-12-08T08:53:09Z</time>
      </trkpt>
      <trkpt lat="45.02042" lon="4.49518">
        <ele>495</ele>
        <time>2015-12-08T08:53:13Z</time>
      </trkpt>
      <trkpt lat="45.02059" lon="4.49523">
        <ele>493</ele>
        <time>2015-12-08T08:53:16Z</time>
      </trkpt>
      <trkpt lat="45.02081" lon="4.49526">
        <ele>493</ele>
        <time>2015-12-08T08:53:20Z</time>
      </trkpt>
      <trkpt lat="45.02105" lon="4.49533">
        <ele>492</ele>
        <time>2015-12-08T08:53:24Z</time>
      </trkpt>
      <trkpt lat="45.02129" lon="4.49538">
        <ele>491</ele>
        <time>2015-12-08T08:53:28Z</time>
      </trkpt>
      <trkpt lat="45.02151" lon="4.49539">
        <ele>492</ele>
        <time>2015-12-08T08:53:32Z</time>
      </trkpt>
      <trkpt lat="45.02173" lon="4.49545">
        <ele>491</ele>
        <time>2015-12-08T08:53:36Z</time>
      </trkpt>
      <trkpt lat="45.02197" lon="4.49558">
        <ele>489</ele>
        <time>2015-12-08T08:53:40Z</time>
      </trkpt>
      <trkpt lat="45.02218" lon="4.49586">
        <ele>487</ele>
        <time>2015-12-08T08:53:44Z</time>
      </trkpt>
      <trkpt lat="45.02232" lon="4.49616">
        <ele>486</ele>
        <time>2015-12-08T08:53:48Z</time>
      </trkpt>
      <trkpt lat="45.02249" lon="4.49643">
        <ele>484</ele>
        <time>2015-12-08T08:53:52Z</time>
      </trkpt>
      <trkpt lat="45.02272" lon="4.49681">
        <ele>484</ele>
        <time>2015-12-08T08:53:57Z</time>
      </trkpt>
      <trkpt lat="45.02283" lon="4.49705">
        <ele>484</ele>
        <time>2015-12-08T08:54:00Z</time>
      </trkpt>
      <trkpt lat="45.02292" lon="4.49739">
        <ele>483</ele>
        <time>2015-12-08T08:54:04Z</time>
      </trkpt>
      <trkpt lat="45.02304" lon="4.49772">
        <ele>482</ele>
        <time>2015-12-08T08:54:08Z</time>
      </trkpt>
      <trkpt lat="45.02323" lon="4.49809">
        <ele>482</ele>
        <time>2015-12-08T08:54:13Z</time>
      </trkpt>
      <trkpt lat="45.02341" lon="4.49837">
        <ele>482</ele>
        <time>2015-12-08T08:54:17Z</time>
      </trkpt>
      <trkpt lat="45.02367" lon="4.49866">
        <ele>481</ele>
        <time>2015-12-08T08:54:22Z</time>
      </trkpt>
      <trkpt lat="45.024" lon="4.4989">
        <ele>480</ele>
        <time>2015-12-08T08:54:27Z</time>
      </trkpt>
      <trkpt lat="45.02422" lon="4.49904">
        <ele>478</ele>
        <time>2015-12-08T08:54:30Z</time>
      </trkpt>
      <trkpt lat="45.02442" lon="4.49913">
        <ele>478</ele>
        <time>2015-12-08T08:54:33Z</time>
      </trkpt>
      <trkpt lat="45.02463" lon="4.49917">
        <ele>477</ele>
        <time>2015-12-08T08:54:38Z</time>
      </trkpt>
      <trkpt lat="45.02472" lon="4.4992">
        <ele>476</ele>
        <time>2015-12-08T08:54:41Z</time>
      </trkpt>
      <trkpt lat="45.02486" lon="4.49931">
        <ele>476</ele>
        <time>2015-12-08T08:54:45Z</time>
      </trkpt>
      <trkpt lat="45.02506" lon="4.49952">
        <ele>475</ele>
        <time>2015-12-08T08:54:50Z</time>
      </trkpt>
      <trkpt lat="45.02526" lon="4.49967">
        <ele>473</ele>
        <time>2015-12-08T08:54:54Z</time>
      </trkpt>
      <trkpt lat="45.02551" lon="4.49956">
        <ele>473</ele>
        <time>2015-12-08T08:54:58Z</time>
      </trkpt>
      <trkpt lat="45.02582" lon="4.49942">
        <ele>470</ele>
        <time>2015-12-08T08:55:02Z</time>
      </trkpt>
      <trkpt lat="45.02604" lon="4.49927">
        <ele>469</ele>
        <time>2015-12-08T08:55:05Z</time>
      </trkpt>
      <trkpt lat="45.02627" lon="4.49901">
        <ele>468</ele>
        <time>2015-12-08T08:55:09Z</time>
      </trkpt>
      <trkpt lat="45.02658" lon="4.49901">
        <ele>464</ele>
        <time>2015-12-08T08:55:14Z</time>
      </trkpt>
      <trkpt lat="45.02678" lon="4.49939">
        <ele>462</ele>
        <time>2015-12-08T08:55:18Z</time>
      </trkpt>
      <trkpt lat="45.02691" lon="4.49962">
        <ele>459</ele>
        <time>2015-12-08T08:55:22Z</time>
      </trkpt>
      <trkpt lat="45.02701" lon="4.49946">
        <ele>458</ele>
        <time>2015-12-08T08:55:26Z</time>
      </trkpt>
      <trkpt lat="45.02696" lon="4.49896">
        <ele>456</ele>
        <time>2015-12-08T08:55:31Z</time>
      </trkpt>
      <trkpt lat="45.02677" lon="4.49833">
        <ele>453</ele>
        <time>2015-12-08T08:55:36Z</time>
      </trkpt>
      <trkpt lat="45.02663" lon="4.498">
        <ele>451</ele>
        <time>2015-12-08T08:55:40Z</time>
      </trkpt>
      <trkpt lat="45.02673" lon="4.49744">
        <ele>448</ele>
        <time>2015-12-08T08:55:45Z</time>
      </trkpt>
      <trkpt lat="45.02689" lon="4.49705">
        <ele>445</ele>
        <time>2015-12-08T08:55:49Z</time>
      </trkpt>
      <trkpt lat="45.02705" lon="4.49678">
        <ele>443</ele>
        <time>2015-12-08T08:55:53Z</time>
      </trkpt>
      <trkpt lat="45.02725" lon="4.49663">
        <ele>441</ele>
        <time>2015-12-08T08:55:57Z</time>
      </trkpt>
      <trkpt lat="45.02744" lon="4.49646">
        <ele>439</ele>
        <time>2015-12-08T08:56:01Z</time>
      </trkpt>
      <trkpt lat="45.02758" lon="4.49625">
        <ele>438</ele>
        <time>2015-12-08T08:56:05Z</time>
      </trkpt>
      <trkpt lat="45.02774" lon="4.49601">
        <ele>437</ele>
        <time>2015-12-08T08:56:10Z</time>
      </trkpt>
      <trkpt lat="45.02786" lon="4.49579">
        <ele>436</ele>
        <time>2015-12-08T08:56:14Z</time>
      </trkpt>
      <trkpt lat="45.02787" lon="4.4955">
        <ele>437</ele>
        <time>2015-12-08T08:56:19Z</time>
      </trkpt>
      <trkpt lat="45.02781" lon="4.49531">
        <ele>437</ele>
        <time>2015-12-08T08:56:22Z</time>
      </trkpt>
      <trkpt lat="45.0277" lon="4.49496">
        <ele>436</ele>
        <time>2015-12-08T08:56:27Z</time>
      </trkpt>
      <trkpt lat="45.02759" lon="4.4947">
        <ele>435</ele>
        <time>2015-12-08T08:56:31Z</time>
      </trkpt>
      <trkpt lat="45.02748" lon="4.4945">
        <ele>435</ele>
        <time>2015-12-08T08:56:35Z</time>
      </trkpt>
      <trkpt lat="45.02729" lon="4.49439">
        <ele>434</ele>
        <time>2015-12-08T08:56:39Z</time>
      </trkpt>
      <trkpt lat="45.02712" lon="4.49453">
        <ele>433</ele>
        <time>2015-12-08T08:56:43Z</time>
      </trkpt>
      <trkpt lat="45.027" lon="4.4947">
        <ele>433</ele>
        <time>2015-12-08T08:56:46Z</time>
      </trkpt>
      <trkpt lat="45.02688" lon="4.49481">
        <ele>433</ele>
        <time>2015-12-08T08:56:50Z</time>
      </trkpt>
      <trkpt lat="45.02679" lon="4.49497">
        <ele>433</ele>
        <time>2015-12-08T08:56:55Z</time>
      </trkpt>
      <trkpt lat="45.02666" lon="4.49516">
        <ele>433</ele>
        <time>2015-12-08T08:56:59Z</time>
      </trkpt>
      <trkpt lat="45.02653" lon="4.49531">
        <ele>432</ele>
        <time>2015-12-08T08:57:03Z</time>
      </trkpt>
      <trkpt lat="45.02642" lon="4.49535">
        <ele>433</ele>
        <time>2015-12-08T08:57:08Z</time>
      </trkpt>
      <trkpt lat="45.02633" lon="4.49525">
        <ele>433</ele>
        <time>2015-12-08T08:57:12Z</time>
      </trkpt>
      <trkpt lat="45.02628" lon="4.4951">
        <ele>434</ele>
        <time>2015-12-08T08:57:16Z</time>
      </trkpt>
      <trkpt lat="45.02622" lon="4.49495">
        <ele>434</ele>
        <time>2015-12-08T08:57:20Z</time>
      </trkpt>
      <trkpt lat="45.02617" lon="4.49483">
        <ele>434</ele>
        <time>2015-12-08T08:57:23Z</time>
      </trkpt>
      <trkpt lat="45.02611" lon="4.49467">
        <ele>435</ele>
        <time>2015-12-08T08:57:27Z</time>
      </trkpt>
      <trkpt lat="45.02606" lon="4.49453">
        <ele>436</ele>
        <time>2015-12-08T08:57:30Z</time>
      </trkpt>
      <trkpt lat="45.02603" lon="4.49443">
        <ele>438</ele>
        <time>2015-12-08T08:57:33Z</time>
      </trkpt>
      <trkpt lat="45.02598" lon="4.49432">
        <ele>438</ele>
        <time>2015-12-08T08:57:38Z</time>
      </trkpt>
      <trkpt lat="45.02596" lon="4.49418">
        <ele>439</ele>
        <time>2015-12-08T08:57:41Z</time>
      </trkpt>
      <trkpt lat="45.02595" lon="4.49408">
        <ele>441</ele>
        <time>2015-12-08T08:57:48Z</time>
      </trkpt>
      <trkpt lat="45.02592" lon="4.49398">
        <ele>442</ele>
        <time>2015-12-08T08:57:54Z</time>
      </trkpt>
      <trkpt lat="45.0259" lon="4.49389">
        <ele>445</ele>
        <time>2015-12-08T08:58:00Z</time>
      </trkpt>
      <trkpt lat="45.02586" lon="4.49378">
        <ele>447</ele>
        <time>2015-12-08T08:58:06Z</time>
      </trkpt>
      <trkpt lat="45.02581" lon="4.49368">
        <ele>449</ele>
        <time>2015-12-08T08:58:14Z</time>
      </trkpt>
      <trkpt lat="45.02575" lon="4.49359">
        <ele>452</ele>
        <time>2015-12-08T08:58:23Z</time>
      </trkpt>
      <trkpt lat="45.02568" lon="4.49353">
        <ele>453</ele>
        <time>2015-12-08T08:58:29Z</time>
      </trkpt>
      <trkpt lat="45.02564" lon="4.49343">
        <ele>454</ele>
        <time>2015-12-08T08:58:36Z</time>
      </trkpt>
      <trkpt lat="45.02557" lon="4.49351">
        <ele>458</ele>
        <time>2015-12-08T08:58:47Z</time>
      </trkpt>
      <trkpt lat="45.02556" lon="4.49363">
        <ele>459</ele>
        <time>2015-12-08T08:58:58Z</time>
      </trkpt>
      <trkpt lat="45.0256" lon="4.49373">
        <ele>460</ele>
        <time>2015-12-08T08:59:06Z</time>
      </trkpt>
      <trkpt lat="45.0256" lon="4.49383">
        <ele>461</ele>
        <time>2015-12-08T08:59:12Z</time>
      </trkpt>
      <trkpt lat="45.02558" lon="4.49395">
        <ele>462</ele>
        <time>2015-12-08T08:59:21Z</time>
      </trkpt>
      <trkpt lat="45.02557" lon="4.49405">
        <ele>463</ele>
        <time>2015-12-08T08:59:28Z</time>
      </trkpt>
      <trkpt lat="45.02557" lon="4.49418">
        <ele>464</ele>
        <time>2015-12-08T08:59:36Z</time>
      </trkpt>
      <trkpt lat="45.02555" lon="4.49427">
        <ele>465</ele>
        <time>2015-12-08T08:59:45Z</time>
      </trkpt>
      <trkpt lat="45.02558" lon="4.49439">
        <ele>466</ele>
        <time>2015-12-08T08:59:52Z</time>
      </trkpt>
      <trkpt lat="45.02559" lon="4.49451">
        <ele>468</ele>
        <time>2015-12-08T08:59:59Z</time>
      </trkpt>
      <trkpt lat="45.0256" lon="4.49462">
        <ele>469</ele>
        <time>2015-12-08T09:00:06Z</time>
      </trkpt>
      <trkpt lat="45.02559" lon="4.49474">
        <ele>470</ele>
        <time>2015-12-08T09:00:13Z</time>
      </trkpt>
      <trkpt lat="45.02557" lon="4.49484">
        <ele>473</ele>
        <time>2015-12-08T09:00:22Z</time>
      </trkpt>
      <trkpt lat="45.02555" lon="4.49495">
        <ele>474</ele>
        <time>2015-12-08T09:00:28Z</time>
      </trkpt>
      <trkpt lat="45.02552" lon="4.49505">
        <ele>475</ele>
        <time>2015-12-08T09:00:36Z</time>
      </trkpt>
      <trkpt lat="45.02546" lon="4.49511">
        <ele>476</ele>
        <time>2015-12-08T09:00:41Z</time>
      </trkpt>
      <trkpt lat="45.02541" lon="4.4952">
        <ele>477</ele>
        <time>2015-12-08T09:00:47Z</time>
      </trkpt>
      <trkpt lat="45.02539" lon="4.4953">
        <ele>478</ele>
        <time>2015-12-08T09:00:51Z</time>
      </trkpt>
      <trkpt lat="45.02533" lon="4.49537">
        <ele>480</ele>
        <time>2015-12-08T09:01:00Z</time>
      </trkpt>
      <trkpt lat="45.02526" lon="4.49543">
        <ele>481</ele>
        <time>2015-12-08T09:01:04Z</time>
      </trkpt>
      <trkpt lat="45.02516" lon="4.49547">
        <ele>482</ele>
        <time>2015-12-08T09:01:09Z</time>
      </trkpt>
      <trkpt lat="45.02511" lon="4.49537">
        <ele>483</ele>
        <time>2015-12-08T09:01:16Z</time>
      </trkpt>
      <trkpt lat="45.0251" lon="4.49518">
        <ele>484</ele>
        <time>2015-12-08T09:01:21Z</time>
      </trkpt>
      <trkpt lat="45.02508" lon="4.49504">
        <ele>486</ele>
        <time>2015-12-08T09:01:25Z</time>
      </trkpt>
      <trkpt lat="45.02506" lon="4.49484">
        <ele>487</ele>
        <time>2015-12-08T09:01:30Z</time>
      </trkpt>
      <trkpt lat="45.02504" lon="4.49472">
        <ele>488</ele>
        <time>2015-12-08T09:01:33Z</time>
      </trkpt>
      <trkpt lat="45.02505" lon="4.49451">
        <ele>490</ele>
        <time>2015-12-08T09:01:38Z</time>
      </trkpt>
      <trkpt lat="45.02509" lon="4.49427">
        <ele>491</ele>
        <time>2015-12-08T09:01:43Z</time>
      </trkpt>
      <trkpt lat="45.02506" lon="4.49389">
        <ele>491</ele>
        <time>2015-12-08T09:01:48Z</time>
      </trkpt>
      <trkpt lat="45.025" lon="4.49368">
        <ele>491</ele>
        <time>2015-12-08T09:01:51Z</time>
      </trkpt>
      <trkpt lat="45.0249" lon="4.49348">
        <ele>492</ele>
        <time>2015-12-08T09:01:55Z</time>
      </trkpt>
      <trkpt lat="45.02483" lon="4.49341">
        <ele>493</ele>
        <time>2015-12-08T09:01:58Z</time>
      </trkpt>
      <trkpt lat="45.02473" lon="4.49327">
        <ele>493</ele>
        <time>2015-12-08T09:02:02Z</time>
      </trkpt>
      <trkpt lat="45.02463" lon="4.49313">
        <ele>492</ele>
        <time>2015-12-08T09:02:07Z</time>
      </trkpt>
      <trkpt lat="45.02458" lon="4.49297">
        <ele>492</ele>
        <time>2015-12-08T09:02:12Z</time>
      </trkpt>
      <trkpt lat="45.02453" lon="4.49283">
        <ele>493</ele>
        <time>2015-12-08T09:02:16Z</time>
      </trkpt>
      <trkpt lat="45.02449" lon="4.49274">
        <ele>493</ele>
        <time>2015-12-08T09:02:19Z</time>
      </trkpt>
      <trkpt lat="45.02446" lon="4.49264">
        <ele>494</ele>
        <time>2015-12-08T09:02:22Z</time>
      </trkpt>
      <trkpt lat="45.0244" lon="4.49251">
        <ele>495</ele>
        <time>2015-12-08T09:02:26Z</time>
      </trkpt>
      <trkpt lat="45.02435" lon="4.4924">
        <ele>495</ele>
        <time>2015-12-08T09:02:30Z</time>
      </trkpt>
      <trkpt lat="45.02431" lon="4.49225">
        <ele>496</ele>
        <time>2015-12-08T09:02:35Z</time>
      </trkpt>
      <trkpt lat="45.02428" lon="4.49215">
        <ele>496</ele>
        <time>2015-12-08T09:02:39Z</time>
      </trkpt>
      <trkpt lat="45.02428" lon="4.49203">
        <ele>497</ele>
        <time>2015-12-08T09:02:43Z</time>
      </trkpt>
      <trkpt lat="45.02426" lon="4.49186">
        <ele>497</ele>
        <time>2015-12-08T09:02:48Z</time>
      </trkpt>
      <trkpt lat="45.02424" lon="4.49173">
        <ele>498</ele>
        <time>2015-12-08T09:02:52Z</time>
      </trkpt>
      <trkpt lat="45.02421" lon="4.49163">
        <ele>498</ele>
        <time>2015-12-08T09:02:55Z</time>
      </trkpt>
      <trkpt lat="45.02417" lon="4.49151">
        <ele>499</ele>
        <time>2015-12-08T09:02:59Z</time>
      </trkpt>
      <trkpt lat="45.02415" lon="4.49137">
        <ele>499</ele>
        <time>2015-12-08T09:03:03Z</time>
      </trkpt>
      <trkpt lat="45.02412" lon="4.49124">
        <ele>500</ele>
        <time>2015-12-08T09:03:07Z</time>
      </trkpt>
      <trkpt lat="45.02411" lon="4.49112">
        <ele>500</ele>
        <time>2015-12-08T09:03:10Z</time>
      </trkpt>
      <trkpt lat="45.02411" lon="4.49093">
        <ele>501</ele>
        <time>2015-12-08T09:03:15Z</time>
      </trkpt>
      <trkpt lat="45.02411" lon="4.49076">
        <ele>501</ele>
        <time>2015-12-08T09:03:19Z</time>
      </trkpt>
      <trkpt lat="45.02409" lon="4.49062">
        <ele>502</ele>
        <time>2015-12-08T09:03:23Z</time>
      </trkpt>
      <trkpt lat="45.02408" lon="4.49054">
        <ele>502</ele>
        <time>2015-12-08T09:03:26Z</time>
      </trkpt>
      <trkpt lat="45.02406" lon="4.4904">
        <ele>503</ele>
        <time>2015-12-08T09:03:31Z</time>
      </trkpt>
      <trkpt lat="45.02402" lon="4.49029">
        <ele>504</ele>
        <time>2015-12-08T09:03:35Z</time>
      </trkpt>
      <trkpt lat="45.02401" lon="4.49015">
        <ele>504</ele>
        <time>2015-12-08T09:03:39Z</time>
      </trkpt>
      <trkpt lat="45.024" lon="4.49006">
        <ele>504</ele>
        <time>2015-12-08T09:03:43Z</time>
      </trkpt>
      <trkpt lat="45.02399" lon="4.48994">
        <ele>505</ele>
        <time>2015-12-08T09:03:48Z</time>
      </trkpt>
      <trkpt lat="45.02397" lon="4.48978">
        <ele>506</ele>
        <time>2015-12-08T09:03:53Z</time>
      </trkpt>
      <trkpt lat="45.02395" lon="4.48964">
        <ele>506</ele>
        <time>2015-12-08T09:03:57Z</time>
      </trkpt>
      <trkpt lat="45.02395" lon="4.48951">
        <ele>507</ele>
        <time>2015-12-08T09:04:01Z</time>
      </trkpt>
      <trkpt lat="45.02395" lon="4.48939">
        <ele>508</ele>
        <time>2015-12-08T09:04:09Z</time>
      </trkpt>
      <trkpt lat="45.02392" lon="4.4893">
        <ele>509</ele>
        <time>2015-12-08T09:04:15Z</time>
      </trkpt>
      <trkpt lat="45.02386" lon="4.48923">
        <ele>510</ele>
        <time>2015-12-08T09:04:21Z</time>
      </trkpt>
      <trkpt lat="45.02378" lon="4.48921">
        <ele>511</ele>
        <time>2015-12-08T09:04:29Z</time>
      </trkpt>
      <trkpt lat="45.02373" lon="4.4891">
        <ele>512</ele>
        <time>2015-12-08T09:04:37Z</time>
      </trkpt>
      <trkpt lat="45.02371" lon="4.48902">
        <ele>513</ele>
        <time>2015-12-08T09:04:50Z</time>
      </trkpt>
      <trkpt lat="45.02367" lon="4.48893">
        <ele>513</ele>
        <time>2015-12-08T09:04:55Z</time>
      </trkpt>
      <trkpt lat="45.02363" lon="4.48883">
        <ele>512</ele>
        <time>2015-12-08T09:05:02Z</time>
      </trkpt>
      <trkpt lat="45.02356" lon="4.48875">
        <ele>512</ele>
        <time>2015-12-08T09:05:09Z</time>
      </trkpt>
      <trkpt lat="45.02352" lon="4.48867">
        <ele>512</ele>
        <time>2015-12-08T09:05:13Z</time>
      </trkpt>
      <trkpt lat="45.02349" lon="4.48848">
        <ele>512</ele>
        <time>2015-12-08T09:05:18Z</time>
      </trkpt>
      <trkpt lat="45.02346" lon="4.4883">
        <ele>512</ele>
        <time>2015-12-08T09:05:22Z</time>
      </trkpt>
      <trkpt lat="45.02344" lon="4.48816">
        <ele>512</ele>
        <time>2015-12-08T09:05:25Z</time>
      </trkpt>
      <trkpt lat="45.02343" lon="4.48801">
        <ele>511</ele>
        <time>2015-12-08T09:05:29Z</time>
      </trkpt>
      <trkpt lat="45.02341" lon="4.48787">
        <ele>511</ele>
        <time>2015-12-08T09:05:33Z</time>
      </trkpt>
      <trkpt lat="45.02336" lon="4.48772">
        <ele>510</ele>
        <time>2015-12-08T09:05:37Z</time>
      </trkpt>
      <trkpt lat="45.02331" lon="4.48755">
        <ele>509</ele>
        <time>2015-12-08T09:05:41Z</time>
      </trkpt>
      <trkpt lat="45.02321" lon="4.48742">
        <ele>509</ele>
        <time>2015-12-08T09:05:45Z</time>
      </trkpt>
      <trkpt lat="45.02311" lon="4.48734">
        <ele>509</ele>
        <time>2015-12-08T09:05:49Z</time>
      </trkpt>
      <trkpt lat="45.02305" lon="4.48726">
        <ele>509</ele>
        <time>2015-12-08T09:05:53Z</time>
      </trkpt>
      <trkpt lat="45.02301" lon="4.48716">
        <ele>510</ele>
        <time>2015-12-08T09:05:57Z</time>
      </trkpt>
      <trkpt lat="45.02299" lon="4.48707">
        <ele>511</ele>
        <time>2015-12-08T09:06:01Z</time>
      </trkpt>
      <trkpt lat="45.02301" lon="4.48699">
        <ele>511</ele>
        <time>2015-12-08T09:06:04Z</time>
      </trkpt>
      <trkpt lat="45.02295" lon="4.48684">
        <ele>512</ele>
        <time>2015-12-08T09:06:09Z</time>
      </trkpt>
      <trkpt lat="45.02288" lon="4.48675">
        <ele>513</ele>
        <time>2015-12-08T09:06:13Z</time>
      </trkpt>
      <trkpt lat="45.02283" lon="4.48665">
        <ele>514</ele>
        <time>2015-12-08T09:06:17Z</time>
      </trkpt>
      <trkpt lat="45.02277" lon="4.48656">
        <ele>515</ele>
        <time>2015-12-08T09:06:23Z</time>
      </trkpt>
      <trkpt lat="45.02274" lon="4.48646">
        <ele>517</ele>
        <time>2015-12-08T09:06:31Z</time>
      </trkpt>
      <trkpt lat="45.02269" lon="4.48638">
        <ele>519</ele>
        <time>2015-12-08T09:06:37Z</time>
      </trkpt>
      <trkpt lat="45.02265" lon="4.48629">
        <ele>520</ele>
        <time>2015-12-08T09:06:45Z</time>
      </trkpt>
      <trkpt lat="45.02262" lon="4.48618">
        <ele>523</ele>
        <time>2015-12-08T09:07:04Z</time>
      </trkpt>
      <trkpt lat="45.02261" lon="4.48608">
        <ele>523</ele>
        <time>2015-12-08T09:07:10Z</time>
      </trkpt>
      <trkpt lat="45.0226" lon="4.48596">
        <ele>524</ele>
        <time>2015-12-08T09:07:18Z</time>
      </trkpt>
      <trkpt lat="45.02256" lon="4.48585">
        <ele>526</ele>
        <time>2015-12-08T09:07:32Z</time>
      </trkpt>
      <trkpt lat="45.02253" lon="4.48574">
        <ele>527</ele>
        <time>2015-12-08T09:07:39Z</time>
      </trkpt>
      <trkpt lat="45.02251" lon="4.48561">
        <ele>527</ele>
        <time>2015-12-08T09:07:43Z</time>
      </trkpt>
      <trkpt lat="45.02248" lon="4.4855">
        <ele>527</ele>
        <time>2015-12-08T09:07:48Z</time>
      </trkpt>
      <trkpt lat="45.02247" lon="4.4856">
        <ele>531</ele>
        <time>2015-12-08T09:11:10Z</time>
      </trkpt>
      <trkpt lat="45.02248" lon="4.48571">
        <ele>531</ele>
        <time>2015-12-08T09:11:14Z</time>
      </trkpt>
      <trkpt lat="45.02252" lon="4.48586">
        <ele>530</ele>
        <time>2015-12-08T09:11:18Z</time>
      </trkpt>
      <trkpt lat="45.02258" lon="4.48609">
        <ele>530</ele>
        <time>2015-12-08T09:11:23Z</time>
      </trkpt>
      <trkpt lat="45.02263" lon="4.48627">
        <ele>529</ele>
        <time>2015-12-08T09:11:27Z</time>
      </trkpt>
      <trkpt lat="45.02269" lon="4.48637">
        <ele>528</ele>
        <time>2015-12-08T09:11:30Z</time>
      </trkpt>
      <trkpt lat="45.02278" lon="4.48654">
        <ele>528</ele>
        <time>2015-12-08T09:11:34Z</time>
      </trkpt>
      <trkpt lat="45.02291" lon="4.48677">
        <ele>526</ele>
        <time>2015-12-08T09:11:39Z</time>
      </trkpt>
      <trkpt lat="45.02297" lon="4.48698">
        <ele>524</ele>
        <time>2015-12-08T09:11:43Z</time>
      </trkpt>
      <trkpt lat="45.02305" lon="4.48724">
        <ele>522</ele>
        <time>2015-12-08T09:11:48Z</time>
      </trkpt>
      <trkpt lat="45.02315" lon="4.48737">
        <ele>520</ele>
        <time>2015-12-08T09:11:51Z</time>
      </trkpt>
      <trkpt lat="45.02324" lon="4.48751">
        <ele>519</ele>
        <time>2015-12-08T09:11:54Z</time>
      </trkpt>
      <trkpt lat="45.02331" lon="4.48771">
        <ele>515</ele>
        <time>2015-12-08T09:11:58Z</time>
      </trkpt>
      <trkpt lat="45.02336" lon="4.48793">
        <ele>511</ele>
        <time>2015-12-08T09:12:03Z</time>
      </trkpt>
      <trkpt lat="45.02339" lon="4.48808">
        <ele>507</ele>
        <time>2015-12-08T09:12:07Z</time>
      </trkpt>
      <trkpt lat="45.0234" lon="4.48816">
        <ele>506</ele>
        <time>2015-12-08T09:12:09Z</time>
      </trkpt>
      <trkpt lat="45.02341" lon="4.48825">
        <ele>505</ele>
        <time>2015-12-08T09:12:12Z</time>
      </trkpt>
      <trkpt lat="45.02347" lon="4.48845">
        <ele>502</ele>
        <time>2015-12-08T09:12:16Z</time>
      </trkpt>
      <trkpt lat="45.02351" lon="4.48858">
        <ele>502</ele>
        <time>2015-12-08T09:12:20Z</time>
      </trkpt>
      <trkpt lat="45.02358" lon="4.4887">
        <ele>501</ele>
        <time>2015-12-08T09:12:25Z</time>
      </trkpt>
      <trkpt lat="45.02364" lon="4.48879">
        <ele>501</ele>
        <time>2015-12-08T09:12:28Z</time>
      </trkpt>
      <trkpt lat="45.02369" lon="4.48887">
        <ele>501</ele>
        <time>2015-12-08T09:12:31Z</time>
      </trkpt>
      <trkpt lat="45.02372" lon="4.48904">
        <ele>501</ele>
        <time>2015-12-08T09:12:35Z</time>
      </trkpt>
      <trkpt lat="45.02377" lon="4.48924">
        <ele>502</ele>
        <time>2015-12-08T09:12:39Z</time>
      </trkpt>
      <trkpt lat="45.02378" lon="4.48943">
        <ele>503</ele>
        <time>2015-12-08T09:12:43Z</time>
      </trkpt>
      <trkpt lat="45.02377" lon="4.48967">
        <ele>502</ele>
        <time>2015-12-08T09:12:47Z</time>
      </trkpt>
      <trkpt lat="45.02372" lon="4.48989">
        <ele>501</ele>
        <time>2015-12-08T09:12:51Z</time>
      </trkpt>
      <trkpt lat="45.02367" lon="4.49012">
        <ele>503</ele>
        <time>2015-12-08T09:12:55Z</time>
      </trkpt>
      <trkpt lat="45.02357" lon="4.49029">
        <ele>504</ele>
        <time>2015-12-08T09:12:59Z</time>
      </trkpt>
      <trkpt lat="45.02351" lon="4.49038">
        <ele>504</ele>
        <time>2015-12-08T09:13:02Z</time>
      </trkpt>
      <trkpt lat="45.02347" lon="4.49054">
        <ele>505</ele>
        <time>2015-12-08T09:13:06Z</time>
      </trkpt>
      <trkpt lat="45.02348" lon="4.49066">
        <ele>506</ele>
        <time>2015-12-08T09:13:09Z</time>
      </trkpt>
      <trkpt lat="45.0235" lon="4.49086">
        <ele>508</ele>
        <time>2015-12-08T09:13:14Z</time>
      </trkpt>
      <trkpt lat="45.02353" lon="4.491">
        <ele>509</ele>
        <time>2015-12-08T09:13:18Z</time>
      </trkpt>
      <trkpt lat="45.02358" lon="4.49115">
        <ele>510</ele>
        <time>2015-12-08T09:13:22Z</time>
      </trkpt>
      <trkpt lat="45.02361" lon="4.49128">
        <ele>510</ele>
        <time>2015-12-08T09:13:26Z</time>
      </trkpt>
      <trkpt lat="45.02356" lon="4.49138">
        <ele>510</ele>
        <time>2015-12-08T09:13:33Z</time>
      </trkpt>
      <trkpt lat="45.02348" lon="4.49141">
        <ele>510</ele>
        <time>2015-12-08T09:13:38Z</time>
      </trkpt>
      <trkpt lat="45.02339" lon="4.49141">
        <ele>510</ele>
        <time>2015-12-08T09:13:42Z</time>
      </trkpt>
      <trkpt lat="45.02332" lon="4.49142">
        <ele>510</ele>
        <time>2015-12-08T09:13:47Z</time>
      </trkpt>
      <trkpt lat="45.02325" lon="4.49146">
        <ele>509</ele>
        <time>2015-12-08T09:13:51Z</time>
      </trkpt>
      <trkpt lat="45.02332" lon="4.49145">
        <ele>510</ele>
        <time>2015-12-08T09:14:00Z</time>
      </trkpt>
      <trkpt lat="45.02339" lon="4.49145">
        <ele>511</ele>
        <time>2015-12-08T09:14:08Z</time>
      </trkpt>
      <trkpt lat="45.02351" lon="4.4914">
        <ele>511</ele>
        <time>2015-12-08T09:14:13Z</time>
      </trkpt>
      <trkpt lat="45.0236" lon="4.4913">
        <ele>512</ele>
        <time>2015-12-08T09:14:17Z</time>
      </trkpt>
      <trkpt lat="45.02356" lon="4.49116">
        <ele>512</ele>
        <time>2015-12-08T09:14:21Z</time>
      </trkpt>
      <trkpt lat="45.02351" lon="4.49095">
        <ele>511</ele>
        <time>2015-12-08T09:14:26Z</time>
      </trkpt>
      <trkpt lat="45.02351" lon="4.49072">
        <ele>510</ele>
        <time>2015-12-08T09:14:30Z</time>
      </trkpt>
      <trkpt lat="45.02356" lon="4.49045">
        <ele>509</ele>
        <time>2015-12-08T09:14:34Z</time>
      </trkpt>
      <trkpt lat="45.02371" lon="4.49009">
        <ele>507</ele>
        <time>2015-12-08T09:14:39Z</time>
      </trkpt>
      <trkpt lat="45.02377" lon="4.48981">
        <ele>506</ele>
        <time>2015-12-08T09:14:42Z</time>
      </trkpt>
      <trkpt lat="45.02382" lon="4.48937">
        <ele>503</ele>
        <time>2015-12-08T09:14:47Z</time>
      </trkpt>
      <trkpt lat="45.02371" lon="4.4892">
        <ele>501</ele>
        <time>2015-12-08T09:14:51Z</time>
      </trkpt>
      <trkpt lat="45.02362" lon="4.48921">
        <ele>499</ele>
        <time>2015-12-08T09:14:54Z</time>
      </trkpt>
      <trkpt lat="45.02343" lon="4.4894">
        <ele>496</ele>
        <time>2015-12-08T09:14:59Z</time>
      </trkpt>
      <trkpt lat="45.02327" lon="4.48958">
        <ele>493</ele>
        <time>2015-12-08T09:15:03Z</time>
      </trkpt>
      <trkpt lat="45.02316" lon="4.4897">
        <ele>491</ele>
        <time>2015-12-08T09:15:07Z</time>
      </trkpt>
      <trkpt lat="45.02307" lon="4.48957">
        <ele>489</ele>
        <time>2015-12-08T09:15:10Z</time>
      </trkpt>
      <trkpt lat="45.02297" lon="4.48903">
        <ele>484</ele>
        <time>2015-12-08T09:15:15Z</time>
      </trkpt>
      <trkpt lat="45.02288" lon="4.48884">
        <ele>481</ele>
        <time>2015-12-08T09:15:19Z</time>
      </trkpt>
      <trkpt lat="45.02269" lon="4.489">
        <ele>480</ele>
        <time>2015-12-08T09:15:23Z</time>
      </trkpt>
      <trkpt lat="45.02246" lon="4.48924">
        <ele>477</ele>
        <time>2015-12-08T09:15:27Z</time>
      </trkpt>
      <trkpt lat="45.02219" lon="4.4895">
        <ele>474</ele>
        <time>2015-12-08T09:15:31Z</time>
      </trkpt>
      <trkpt lat="45.02201" lon="4.48971">
        <ele>472</ele>
        <time>2015-12-08T09:15:34Z</time>
      </trkpt>
      <trkpt lat="45.02172" lon="4.48993">
        <ele>471</ele>
        <time>2015-12-08T09:15:39Z</time>
      </trkpt>
      <trkpt lat="45.02157" lon="4.49004">
        <ele>470</ele>
        <time>2015-12-08T09:15:42Z</time>
      </trkpt>
      <trkpt lat="45.02138" lon="4.49006">
        <ele>470</ele>
        <time>2015-12-08T09:15:46Z</time>
      </trkpt>
      <trkpt lat="45.02123" lon="4.48998">
        <ele>469</ele>
        <time>2015-12-08T09:15:50Z</time>
      </trkpt>
      <trkpt lat="45.02109" lon="4.48991">
        <ele>469</ele>
        <time>2015-12-08T09:15:54Z</time>
      </trkpt>
      <trkpt lat="45.02098" lon="4.48984">
        <ele>468</ele>
        <time>2015-12-08T09:15:59Z</time>
      </trkpt>
      <trkpt lat="45.02084" lon="4.4898">
        <ele>468</ele>
        <time>2015-12-08T09:16:03Z</time>
      </trkpt>
      <trkpt lat="45.02068" lon="4.48977">
        <ele>467</ele>
        <time>2015-12-08T09:16:07Z</time>
      </trkpt>
      <trkpt lat="45.02047" lon="4.48973">
        <ele>464</ele>
        <time>2015-12-08T09:16:12Z</time>
      </trkpt>
      <trkpt lat="45.02031" lon="4.48968">
        <ele>463</ele>
        <time>2015-12-08T09:16:16Z</time>
      </trkpt>
      <trkpt lat="45.02013" lon="4.48958">
        <ele>460</ele>
        <time>2015-12-08T09:16:20Z</time>
      </trkpt>
      <trkpt lat="45.01991" lon="4.48936">
        <ele>457</ele>
        <time>2015-12-08T09:16:25Z</time>
      </trkpt>
      <trkpt lat="45.01972" lon="4.48917">
        <ele>455</ele>
        <time>2015-12-08T09:16:29Z</time>
      </trkpt>
      <trkpt lat="45.01953" lon="4.48901">
        <ele>453</ele>
        <time>2015-12-08T09:16:33Z</time>
      </trkpt>
      <trkpt lat="45.01935" lon="4.48874">
        <ele>451</ele>
        <time>2015-12-08T09:16:37Z</time>
      </trkpt>
      <trkpt lat="45.0191" lon="4.48844">
        <ele>449</ele>
        <time>2015-12-08T09:16:41Z</time>
      </trkpt>
      <trkpt lat="45.0189" lon="4.48821">
        <ele>448</ele>
        <time>2015-12-08T09:16:44Z</time>
      </trkpt>
      <trkpt lat="45.01865" lon="4.48779">
        <ele>446</ele>
        <time>2015-12-08T09:16:49Z</time>
      </trkpt>
      <trkpt lat="45.01839" lon="4.48768">
        <ele>444</ele>
        <time>2015-12-08T09:16:53Z</time>
      </trkpt>
      <trkpt lat="45.01817" lon="4.48779">
        <ele>441</ele>
        <time>2015-12-08T09:16:57Z</time>
      </trkpt>
      <trkpt lat="45.01797" lon="4.48791">
        <ele>441</ele>
        <time>2015-12-08T09:17:01Z</time>
      </trkpt>
      <trkpt lat="45.01783" lon="4.48799">
        <ele>440</ele>
        <time>2015-12-08T09:17:04Z</time>
      </trkpt>
      <trkpt lat="45.0177" lon="4.48807">
        <ele>439</ele>
        <time>2015-12-08T09:17:07Z</time>
      </trkpt>
      <trkpt lat="45.01755" lon="4.48816">
        <ele>438</ele>
        <time>2015-12-08T09:17:11Z</time>
      </trkpt>
      <trkpt lat="45.01741" lon="4.48828">
        <ele>437</ele>
        <time>2015-12-08T09:17:15Z</time>
      </trkpt>
      <trkpt lat="45.01725" lon="4.48851">
        <ele>435</ele>
        <time>2015-12-08T09:17:20Z</time>
      </trkpt>
      <trkpt lat="45.01714" lon="4.48875">
        <ele>434</ele>
        <time>2015-12-08T09:17:24Z</time>
      </trkpt>
      <trkpt lat="45.01704" lon="4.48904">
        <ele>432</ele>
        <time>2015-12-08T09:17:28Z</time>
      </trkpt>
      <trkpt lat="45.01697" lon="4.48947">
        <ele>431</ele>
        <time>2015-12-08T09:17:32Z</time>
      </trkpt>
      <trkpt lat="45.01691" lon="4.48987">
        <ele>431</ele>
        <time>2015-12-08T09:17:36Z</time>
      </trkpt>
      <trkpt lat="45.01679" lon="4.49033">
        <ele>432</ele>
        <time>2015-12-08T09:17:41Z</time>
      </trkpt>
      <trkpt lat="45.0167" lon="4.49068">
        <ele>431</ele>
        <time>2015-12-08T09:17:45Z</time>
      </trkpt>
      <trkpt lat="45.01661" lon="4.49099">
        <ele>431</ele>
        <time>2015-12-08T09:17:49Z</time>
      </trkpt>
      <trkpt lat="45.01653" lon="4.49122">
        <ele>430</ele>
        <time>2015-12-08T09:17:52Z</time>
      </trkpt>
      <trkpt lat="45.0163" lon="4.49155">
        <ele>429</ele>
        <time>2015-12-08T09:17:57Z</time>
      </trkpt>
      <trkpt lat="45.01613" lon="4.4917">
        <ele>428</ele>
        <time>2015-12-08T09:18:00Z</time>
      </trkpt>
      <trkpt lat="45.01596" lon="4.49186">
        <ele>427</ele>
        <time>2015-12-08T09:18:03Z</time>
      </trkpt>
      <trkpt lat="45.01574" lon="4.49204">
        <ele>426</ele>
        <time>2015-12-08T09:18:07Z</time>
      </trkpt>
      <trkpt lat="45.0155" lon="4.49214">
        <ele>426</ele>
        <time>2015-12-08T09:18:11Z</time>
      </trkpt>
      <trkpt lat="45.01527" lon="4.49223">
        <ele>425</ele>
        <time>2015-12-08T09:18:15Z</time>
      </trkpt>
      <trkpt lat="45.01504" lon="4.4923">
        <ele>425</ele>
        <time>2015-12-08T09:18:19Z</time>
      </trkpt>
      <trkpt lat="45.01484" lon="4.49237">
        <ele>424</ele>
        <time>2015-12-08T09:18:23Z</time>
      </trkpt>
      <trkpt lat="45.01465" lon="4.49243">
        <ele>425</ele>
        <time>2015-12-08T09:18:28Z</time>
      </trkpt>
      <trkpt lat="45.01459" lon="4.49236">
        <ele>424</ele>
        <time>2015-12-08T09:18:32Z</time>
      </trkpt>
      <trkpt lat="45.01456" lon="4.49229">
        <ele>424</ele>
        <time>2015-12-08T09:18:37Z</time>
      </trkpt>
      <trkpt lat="45.01454" lon="4.49218">
        <ele>425</ele>
        <time>2015-12-08T09:18:41Z</time>
      </trkpt>
      <trkpt lat="45.01449" lon="4.49206">
        <ele>425</ele>
        <time>2015-12-08T09:18:45Z</time>
      </trkpt>
      <trkpt lat="45.01444" lon="4.49197">
        <ele>426</ele>
        <time>2015-12-08T09:18:48Z</time>
      </trkpt>
      <trkpt lat="45.01439" lon="4.49184">
        <ele>427</ele>
        <time>2015-12-08T09:18:52Z</time>
      </trkpt>
      <trkpt lat="45.01437" lon="4.49174">
        <ele>428</ele>
        <time>2015-12-08T09:18:55Z</time>
      </trkpt>
      <trkpt lat="45.0144" lon="4.4916">
        <ele>430</ele>
        <time>2015-12-08T09:18:59Z</time>
      </trkpt>
      <trkpt lat="45.01447" lon="4.49154">
        <ele>431</ele>
        <time>2015-12-08T09:19:04Z</time>
      </trkpt>
      <trkpt lat="45.01454" lon="4.49152">
        <ele>433</ele>
        <time>2015-12-08T09:19:10Z</time>
      </trkpt>
      <trkpt lat="45.01463" lon="4.4915">
        <ele>434</ele>
        <time>2015-12-08T09:19:15Z</time>
      </trkpt>
      <trkpt lat="45.0147" lon="4.4915">
        <ele>435</ele>
        <time>2015-12-08T09:19:20Z</time>
      </trkpt>
      <trkpt lat="45.01477" lon="4.49153">
        <ele>437</ele>
        <time>2015-12-08T09:19:25Z</time>
      </trkpt>
      <trkpt lat="45.01483" lon="4.49157">
        <ele>437</ele>
        <time>2015-12-08T09:19:29Z</time>
      </trkpt>
      <trkpt lat="45.0149" lon="4.49157">
        <ele>438</ele>
        <time>2015-12-08T09:19:34Z</time>
      </trkpt>
      <trkpt lat="45.01494" lon="4.49149">
        <ele>440</ele>
        <time>2015-12-08T09:19:42Z</time>
      </trkpt>
      <trkpt lat="45.01499" lon="4.49144">
        <ele>441</ele>
        <time>2015-12-08T09:19:47Z</time>
      </trkpt>
      <trkpt lat="45.01506" lon="4.49139">
        <ele>443</ele>
        <time>2015-12-08T09:19:53Z</time>
      </trkpt>
      <trkpt lat="45.01513" lon="4.49133">
        <ele>444</ele>
        <time>2015-12-08T09:20:01Z</time>
      </trkpt>
      <trkpt lat="45.01518" lon="4.49128">
        <ele>446</ele>
        <time>2015-12-08T09:20:09Z</time>
      </trkpt>
      <trkpt lat="45.01525" lon="4.4912">
        <ele>447</ele>
        <time>2015-12-08T09:20:13Z</time>
      </trkpt>
      <trkpt lat="45.0153" lon="4.49109">
        <ele>448</ele>
        <time>2015-12-08T09:20:18Z</time>
      </trkpt>
      <trkpt lat="45.01534" lon="4.49102">
        <ele>449</ele>
        <time>2015-12-08T09:20:21Z</time>
      </trkpt>
      <trkpt lat="45.01539" lon="4.49091">
        <ele>450</ele>
        <time>2015-12-08T09:20:25Z</time>
      </trkpt>
      <trkpt lat="45.01543" lon="4.49084">
        <ele>451</ele>
        <time>2015-12-08T09:20:28Z</time>
      </trkpt>
      <trkpt lat="45.01552" lon="4.49071">
        <ele>453</ele>
        <time>2015-12-08T09:20:33Z</time>
      </trkpt>
      <trkpt lat="45.0156" lon="4.49063">
        <ele>454</ele>
        <time>2015-12-08T09:20:37Z</time>
      </trkpt>
      <trkpt lat="45.01567" lon="4.49052">
        <ele>456</ele>
        <time>2015-12-08T09:20:42Z</time>
      </trkpt>
      <trkpt lat="45.01572" lon="4.49043">
        <ele>456</ele>
        <time>2015-12-08T09:20:52Z</time>
      </trkpt>
      <trkpt lat="45.01577" lon="4.49036">
        <ele>457</ele>
        <time>2015-12-08T09:20:58Z</time>
      </trkpt>
      <trkpt lat="45.01579" lon="4.49029">
        <ele>457</ele>
        <time>2015-12-08T09:21:01Z</time>
      </trkpt>
      <trkpt lat="45.01583" lon="4.49019">
        <ele>458</ele>
        <time>2015-12-08T09:21:05Z</time>
      </trkpt>
      <trkpt lat="45.01587" lon="4.49007">
        <ele>459</ele>
        <time>2015-12-08T09:21:09Z</time>
      </trkpt>
      <trkpt lat="45.01594" lon="4.48994">
        <ele>459</ele>
        <time>2015-12-08T09:21:14Z</time>
      </trkpt>
      <trkpt lat="45.01594" lon="4.4898">
        <ele>459</ele>
        <time>2015-12-08T09:21:18Z</time>
      </trkpt>
      <trkpt lat="45.01601" lon="4.48968">
        <ele>459</ele>
        <time>2015-12-08T09:21:23Z</time>
      </trkpt>
      <trkpt lat="45.01606" lon="4.48959">
        <ele>460</ele>
        <time>2015-12-08T09:21:27Z</time>
      </trkpt>
      <trkpt lat="45.01613" lon="4.48948">
        <ele>460</ele>
        <time>2015-12-08T09:21:32Z</time>
      </trkpt>
      <trkpt lat="45.01616" lon="4.48942">
        <ele>461</ele>
        <time>2015-12-08T09:21:35Z</time>
      </trkpt>
      <trkpt lat="45.01621" lon="4.48934">
        <ele>461</ele>
        <time>2015-12-08T09:21:39Z</time>
      </trkpt>
      <trkpt lat="45.01627" lon="4.48923">
        <ele>462</ele>
        <time>2015-12-08T09:21:44Z</time>
      </trkpt>
      <trkpt lat="45.01632" lon="4.4891">
        <ele>463</ele>
        <time>2015-12-08T09:21:49Z</time>
      </trkpt>
      <trkpt lat="45.01635" lon="4.48901">
        <ele>464</ele>
        <time>2015-12-08T09:21:53Z</time>
      </trkpt>
      <trkpt lat="45.0164" lon="4.48892">
        <ele>465</ele>
        <time>2015-12-08T09:21:57Z</time>
      </trkpt>
      <trkpt lat="45.01647" lon="4.48884">
        <ele>466</ele>
        <time>2015-12-08T09:22:02Z</time>
      </trkpt>
      <trkpt lat="45.01651" lon="4.48876">
        <ele>466</ele>
        <time>2015-12-08T09:22:06Z</time>
      </trkpt>
      <trkpt lat="45.01657" lon="4.48867">
        <ele>467</ele>
        <time>2015-12-08T09:22:11Z</time>
      </trkpt>
      <trkpt lat="45.01666" lon="4.48851">
        <ele>469</ele>
        <time>2015-12-08T09:22:16Z</time>
      </trkpt>
      <trkpt lat="45.01669" lon="4.48843">
        <ele>470</ele>
        <time>2015-12-08T09:22:19Z</time>
      </trkpt>
      <trkpt lat="45.01673" lon="4.48833">
        <ele>471</ele>
        <time>2015-12-08T09:22:24Z</time>
      </trkpt>
      <trkpt lat="45.01675" lon="4.48823">
        <ele>472</ele>
        <time>2015-12-08T09:22:28Z</time>
      </trkpt>
      <trkpt lat="45.01677" lon="4.48811">
        <ele>475</ele>
        <time>2015-12-08T09:22:33Z</time>
      </trkpt>
      <trkpt lat="45.01675" lon="4.48801">
        <ele>476</ele>
        <time>2015-12-08T09:22:37Z</time>
      </trkpt>
      <trkpt lat="45.0167" lon="4.48791">
        <ele>478</ele>
        <time>2015-12-08T09:22:42Z</time>
      </trkpt>
      <trkpt lat="45.01665" lon="4.48783">
        <ele>479</ele>
        <time>2015-12-08T09:22:46Z</time>
      </trkpt>
      <trkpt lat="45.01659" lon="4.48777">
        <ele>480</ele>
        <time>2015-12-08T09:22:50Z</time>
      </trkpt>
      <trkpt lat="45.01653" lon="4.48771">
        <ele>481</ele>
        <time>2015-12-08T09:22:55Z</time>
      </trkpt>
      <trkpt lat="45.01647" lon="4.48766">
        <ele>483</ele>
        <time>2015-12-08T09:22:59Z</time>
      </trkpt>
      <trkpt lat="45.01642" lon="4.48759">
        <ele>484</ele>
        <time>2015-12-08T09:23:03Z</time>
      </trkpt>
      <trkpt lat="45.01636" lon="4.48755">
        <ele>486</ele>
        <time>2015-12-08T09:23:07Z</time>
      </trkpt>
      <trkpt lat="45.01628" lon="4.48749">
        <ele>488</ele>
        <time>2015-12-08T09:23:12Z</time>
      </trkpt>
      <trkpt lat="45.01622" lon="4.48743">
        <ele>489</ele>
        <time>2015-12-08T09:23:16Z</time>
      </trkpt>
      <trkpt lat="45.01615" lon="4.48732">
        <ele>490</ele>
        <time>2015-12-08T09:23:20Z</time>
      </trkpt>
      <trkpt lat="45.01603" lon="4.48723">
        <ele>492</ele>
        <time>2015-12-08T09:23:25Z</time>
      </trkpt>
      <trkpt lat="45.01602" lon="4.48733">
        <ele>493</ele>
        <time>2015-12-08T09:23:29Z</time>
      </trkpt>
      <trkpt lat="45.01604" lon="4.48745">
        <ele>493</ele>
        <time>2015-12-08T09:23:33Z</time>
      </trkpt>
      <trkpt lat="45.01608" lon="4.48756">
        <ele>493</ele>
        <time>2015-12-08T09:23:37Z</time>
      </trkpt>
      <trkpt lat="45.01611" lon="4.48766">
        <ele>493</ele>
        <time>2015-12-08T09:23:40Z</time>
      </trkpt>
      <trkpt lat="45.01611" lon="4.48784">
        <ele>495</ele>
        <time>2015-12-08T09:23:45Z</time>
      </trkpt>
      <trkpt lat="45.01607" lon="4.48796">
        <ele>496</ele>
        <time>2015-12-08T09:23:49Z</time>
      </trkpt>
      <trkpt lat="45.01603" lon="4.48808">
        <ele>498</ele>
        <time>2015-12-08T09:23:53Z</time>
      </trkpt>
      <trkpt lat="45.01595" lon="4.4882">
        <ele>498</ele>
        <time>2015-12-08T09:23:58Z</time>
      </trkpt>
      <trkpt lat="45.0159" lon="4.48827">
        <ele>498</ele>
        <time>2015-12-08T09:24:01Z</time>
      </trkpt>
      <trkpt lat="45.01585" lon="4.48835">
        <ele>498</ele>
        <time>2015-12-08T09:24:04Z</time>
      </trkpt>
      <trkpt lat="45.01579" lon="4.48842">
        <ele>497</ele>
        <time>2015-12-08T09:24:07Z</time>
      </trkpt>
      <trkpt lat="45.01573" lon="4.48849">
        <ele>497</ele>
        <time>2015-12-08T09:24:10Z</time>
      </trkpt>
      <trkpt lat="45.01561" lon="4.48861">
        <ele>498</ele>
        <time>2015-12-08T09:24:15Z</time>
      </trkpt>
      <trkpt lat="45.01552" lon="4.48873">
        <ele>497</ele>
        <time>2015-12-08T09:24:19Z</time>
      </trkpt>
      <trkpt lat="45.01542" lon="4.48884">
        <ele>496</ele>
        <time>2015-12-08T09:24:23Z</time>
      </trkpt>
      <trkpt lat="45.01531" lon="4.48894">
        <ele>495</ele>
        <time>2015-12-08T09:24:27Z</time>
      </trkpt>
      <trkpt lat="45.0152" lon="4.48901">
        <ele>494</ele>
        <time>2015-12-08T09:24:31Z</time>
      </trkpt>
      <trkpt lat="45.01509" lon="4.489">
        <ele>494</ele>
        <time>2015-12-08T09:24:35Z</time>
      </trkpt>
      <trkpt lat="45.01501" lon="4.48889">
        <ele>495</ele>
        <time>2015-12-08T09:24:40Z</time>
      </trkpt>
      <trkpt lat="45.01498" lon="4.48881">
        <ele>496</ele>
        <time>2015-12-08T09:24:43Z</time>
      </trkpt>
      <trkpt lat="45.01496" lon="4.48869">
        <ele>495</ele>
        <time>2015-12-08T09:24:47Z</time>
      </trkpt>
      <trkpt lat="45.01492" lon="4.48859">
        <ele>495</ele>
        <time>2015-12-08T09:24:51Z</time>
      </trkpt>
      <trkpt lat="45.01487" lon="4.48842">
        <ele>497</ele>
        <time>2015-12-08T09:24:56Z</time>
      </trkpt>
      <trkpt lat="45.01479" lon="4.48827">
        <ele>498</ele>
        <time>2015-12-08T09:25:01Z</time>
      </trkpt>
      <trkpt lat="45.01472" lon="4.48819">
        <ele>499</ele>
        <time>2015-12-08T09:25:05Z</time>
      </trkpt>
      <trkpt lat="45.01464" lon="4.48811">
        <ele>501</ele>
        <time>2015-12-08T09:25:09Z</time>
      </trkpt>
      <trkpt lat="45.01457" lon="4.48803">
        <ele>502</ele>
        <time>2015-12-08T09:25:13Z</time>
      </trkpt>
      <trkpt lat="45.01451" lon="4.48797">
        <ele>503</ele>
        <time>2015-12-08T09:25:16Z</time>
      </trkpt>
      <trkpt lat="45.01445" lon="4.48793">
        <ele>504</ele>
        <time>2015-12-08T09:25:19Z</time>
      </trkpt>
      <trkpt lat="45.01437" lon="4.48783">
        <ele>505</ele>
        <time>2015-12-08T09:25:23Z</time>
      </trkpt>
      <trkpt lat="45.01432" lon="4.48775">
        <ele>507</ele>
        <time>2015-12-08T09:25:27Z</time>
      </trkpt>
      <trkpt lat="45.01429" lon="4.48767">
        <ele>508</ele>
        <time>2015-12-08T09:25:31Z</time>
      </trkpt>
      <trkpt lat="45.01425" lon="4.48759">
        <ele>509</ele>
        <time>2015-12-08T09:25:35Z</time>
      </trkpt>
      <trkpt lat="45.01419" lon="4.48752">
        <ele>511</ele>
        <time>2015-12-08T09:25:40Z</time>
      </trkpt>
      <trkpt lat="45.01411" lon="4.48748">
        <ele>513</ele>
        <time>2015-12-08T09:25:54Z</time>
      </trkpt>
      <trkpt lat="45.01404" lon="4.48752">
        <ele>515</ele>
        <time>2015-12-08T09:26:00Z</time>
      </trkpt>
      <trkpt lat="45.01411" lon="4.48748">
        <ele>515</ele>
        <time>2015-12-08T09:26:31Z</time>
      </trkpt>
      <trkpt lat="45.0141" lon="4.48736">
        <ele>515</ele>
        <time>2015-12-08T09:26:37Z</time>
      </trkpt>
      <trkpt lat="45.01407" lon="4.4873">
        <ele>514</ele>
        <time>2015-12-08T09:26:40Z</time>
      </trkpt>
      <trkpt lat="45.01403" lon="4.48718">
        <ele>514</ele>
        <time>2015-12-08T09:26:45Z</time>
      </trkpt>
      <trkpt lat="45.014" lon="4.48708">
        <ele>514</ele>
        <time>2015-12-08T09:26:49Z</time>
      </trkpt>
      <trkpt lat="45.01396" lon="4.48696">
        <ele>513</ele>
        <time>2015-12-08T09:26:54Z</time>
      </trkpt>
      <trkpt lat="45.01393" lon="4.48685">
        <ele>513</ele>
        <time>2015-12-08T09:26:58Z</time>
      </trkpt>
      <trkpt lat="45.01389" lon="4.48674">
        <ele>513</ele>
        <time>2015-12-08T09:27:02Z</time>
      </trkpt>
      <trkpt lat="45.01386" lon="4.48662">
        <ele>514</ele>
        <time>2015-12-08T09:27:06Z</time>
      </trkpt>
      <trkpt lat="45.01382" lon="4.48654">
        <ele>515</ele>
        <time>2015-12-08T09:27:09Z</time>
      </trkpt>
      <trkpt lat="45.0138" lon="4.48643">
        <ele>516</ele>
        <time>2015-12-08T09:27:13Z</time>
      </trkpt>
      <trkpt lat="45.01378" lon="4.48633">
        <ele>516</ele>
        <time>2015-12-08T09:27:16Z</time>
      </trkpt>
      <trkpt lat="45.01375" lon="4.48621">
        <ele>517</ele>
        <time>2015-12-08T09:27:20Z</time>
      </trkpt>
      <trkpt lat="45.0137" lon="4.48606">
        <ele>517</ele>
        <time>2015-12-08T09:27:25Z</time>
      </trkpt>
      <trkpt lat="45.01366" lon="4.48596">
        <ele>516</ele>
        <time>2015-12-08T09:27:28Z</time>
      </trkpt>
      <trkpt lat="45.01362" lon="4.48579">
        <ele>517</ele>
        <time>2015-12-08T09:27:33Z</time>
      </trkpt>
      <trkpt lat="45.01358" lon="4.48564">
        <ele>517</ele>
        <time>2015-12-08T09:27:37Z</time>
      </trkpt>
      <trkpt lat="45.01356" lon="4.4855">
        <ele>517</ele>
        <time>2015-12-08T09:27:41Z</time>
      </trkpt>
      <trkpt lat="45.01354" lon="4.48531">
        <ele>518</ele>
        <time>2015-12-08T09:27:46Z</time>
      </trkpt>
      <trkpt lat="45.01351" lon="4.48515">
        <ele>518</ele>
        <time>2015-12-08T09:27:50Z</time>
      </trkpt>
      <trkpt lat="45.01348" lon="4.48504">
        <ele>518</ele>
        <time>2015-12-08T09:27:53Z</time>
      </trkpt>
      <trkpt lat="45.01344" lon="4.48492">
        <ele>518</ele>
        <time>2015-12-08T09:27:57Z</time>
      </trkpt>
      <trkpt lat="45.01341" lon="4.48478">
        <ele>519</ele>
        <time>2015-12-08T09:28:01Z</time>
      </trkpt>
      <trkpt lat="45.01343" lon="4.4846">
        <ele>519</ele>
        <time>2015-12-08T09:28:06Z</time>
      </trkpt>
      <trkpt lat="45.01342" lon="4.48447">
        <ele>519</ele>
        <time>2015-12-08T09:28:10Z</time>
      </trkpt>
      <trkpt lat="45.01344" lon="4.48434">
        <ele>521</ele>
        <time>2015-12-08T09:28:14Z</time>
      </trkpt>
      <trkpt lat="45.01349" lon="4.48424">
        <ele>522</ele>
        <time>2015-12-08T09:28:18Z</time>
      </trkpt>
      <trkpt lat="45.01355" lon="4.4841">
        <ele>525</ele>
        <time>2015-12-08T09:28:23Z</time>
      </trkpt>
      <trkpt lat="45.01357" lon="4.484">
        <ele>526</ele>
        <time>2015-12-08T09:28:27Z</time>
      </trkpt>
      <trkpt lat="45.01358" lon="4.48392">
        <ele>526</ele>
        <time>2015-12-08T09:28:29Z</time>
      </trkpt>
      <trkpt lat="45.01361" lon="4.4838">
        <ele>528</ele>
        <time>2015-12-08T09:28:33Z</time>
      </trkpt>
      <trkpt lat="45.01361" lon="4.48366">
        <ele>530</ele>
        <time>2015-12-08T09:28:37Z</time>
      </trkpt>
      <trkpt lat="45.01363" lon="4.48356">
        <ele>530</ele>
        <time>2015-12-08T09:28:40Z</time>
      </trkpt>
      <trkpt lat="45.01363" lon="4.48347">
        <ele>531</ele>
        <time>2015-12-08T09:28:43Z</time>
      </trkpt>
      <trkpt lat="45.01363" lon="4.48332">
        <ele>532</ele>
        <time>2015-12-08T09:28:47Z</time>
      </trkpt>
      <trkpt lat="45.01363" lon="4.48317">
        <ele>531</ele>
        <time>2015-12-08T09:28:51Z</time>
      </trkpt>
      <trkpt lat="45.01362" lon="4.48305">
        <ele>530</ele>
        <time>2015-12-08T09:28:55Z</time>
      </trkpt>
      <trkpt lat="45.0136" lon="4.48295">
        <ele>530</ele>
        <time>2015-12-08T09:28:58Z</time>
      </trkpt>
      <trkpt lat="45.01356" lon="4.48282">
        <ele>530</ele>
        <time>2015-12-08T09:29:02Z</time>
      </trkpt>
      <trkpt lat="45.01349" lon="4.48264">
        <ele>532</ele>
        <time>2015-12-08T09:29:06Z</time>
      </trkpt>
      <trkpt lat="45.01344" lon="4.48257">
        <ele>532</ele>
        <time>2015-12-08T09:29:09Z</time>
      </trkpt>
      <trkpt lat="45.01336" lon="4.48259">
        <ele>533</ele>
        <time>2015-12-08T09:29:14Z</time>
      </trkpt>
      <trkpt lat="45.01333" lon="4.48268">
        <ele>534</ele>
        <time>2015-12-08T09:29:23Z</time>
      </trkpt>
      <trkpt lat="45.01328" lon="4.48277">
        <ele>535</ele>
        <time>2015-12-08T09:29:29Z</time>
      </trkpt>
      <trkpt lat="45.01322" lon="4.48281">
        <ele>537</ele>
        <time>2015-12-08T09:29:35Z</time>
      </trkpt>
      <trkpt lat="45.01318" lon="4.48289">
        <ele>538</ele>
        <time>2015-12-08T09:29:39Z</time>
      </trkpt>
      <trkpt lat="45.01313" lon="4.48296">
        <ele>540</ele>
        <time>2015-12-08T09:29:45Z</time>
      </trkpt>
      <trkpt lat="45.01306" lon="4.48304">
        <ele>543</ele>
        <time>2015-12-08T09:29:53Z</time>
      </trkpt>
      <trkpt lat="45.013" lon="4.48311">
        <ele>545</ele>
        <time>2015-12-08T09:30:00Z</time>
      </trkpt>
      <trkpt lat="45.01295" lon="4.48315">
        <ele>547</ele>
        <time>2015-12-08T09:30:04Z</time>
      </trkpt>
      <trkpt lat="45.01293" lon="4.48327">
        <ele>547</ele>
        <time>2015-12-08T09:30:12Z</time>
      </trkpt>
      <trkpt lat="45.01288" lon="4.48337">
        <ele>547</ele>
        <time>2015-12-08T09:30:16Z</time>
      </trkpt>
      <trkpt lat="45.01284" lon="4.48346">
        <ele>548</ele>
        <time>2015-12-08T09:30:20Z</time>
      </trkpt>
      <trkpt lat="45.01279" lon="4.48356">
        <ele>548</ele>
        <time>2015-12-08T09:30:25Z</time>
      </trkpt>
      <trkpt lat="45.01273" lon="4.48365">
        <ele>549</ele>
        <time>2015-12-08T09:30:29Z</time>
      </trkpt>
      <trkpt lat="45.01268" lon="4.48374">
        <ele>550</ele>
        <time>2015-12-08T09:30:33Z</time>
      </trkpt>
      <trkpt lat="45.01264" lon="4.48384">
        <ele>550</ele>
        <time>2015-12-08T09:30:37Z</time>
      </trkpt>
      <trkpt lat="45.01259" lon="4.48396">
        <ele>552</ele>
        <time>2015-12-08T09:30:42Z</time>
      </trkpt>
      <trkpt lat="45.01255" lon="4.48406">
        <ele>552</ele>
        <time>2015-12-08T09:30:46Z</time>
      </trkpt>
      <trkpt lat="45.01253" lon="4.48417">
        <ele>552</ele>
        <time>2015-12-08T09:30:50Z</time>
      </trkpt>
      <trkpt lat="45.01248" lon="4.48427">
        <ele>552</ele>
        <time>2015-12-08T09:30:54Z</time>
      </trkpt>
      <trkpt lat="45.01244" lon="4.48439">
        <ele>553</ele>
        <time>2015-12-08T09:30:59Z</time>
      </trkpt>
      <trkpt lat="45.01244" lon="4.48428">
        <ele>555</ele>
        <time>2015-12-08T09:31:12Z</time>
      </trkpt>
      <trkpt lat="45.01248" lon="4.48418">
        <ele>556</ele>
        <time>2015-12-08T09:31:18Z</time>
      </trkpt>
      <trkpt lat="45.0125" lon="4.48408">
        <ele>558</ele>
        <time>2015-12-08T09:31:23Z</time>
      </trkpt>
      <trkpt lat="45.01255" lon="4.48397">
        <ele>559</ele>
        <time>2015-12-08T09:31:27Z</time>
      </trkpt>
      <trkpt lat="45.01255" lon="4.48387">
        <ele>560</ele>
        <time>2015-12-08T09:31:31Z</time>
      </trkpt>
      <trkpt lat="45.01257" lon="4.48376">
        <ele>561</ele>
        <time>2015-12-08T09:31:35Z</time>
      </trkpt>
      <trkpt lat="45.01261" lon="4.48363">
        <ele>562</ele>
        <time>2015-12-08T09:31:39Z</time>
      </trkpt>
      <trkpt lat="45.01263" lon="4.48353">
        <ele>563</ele>
        <time>2015-12-08T09:31:43Z</time>
      </trkpt>
      <trkpt lat="45.01266" lon="4.48344">
        <ele>564</ele>
        <time>2015-12-08T09:31:46Z</time>
      </trkpt>
      <trkpt lat="45.01267" lon="4.48334">
        <ele>565</ele>
        <time>2015-12-08T09:31:50Z</time>
      </trkpt>
      <trkpt lat="45.01268" lon="4.48321">
        <ele>567</ele>
        <time>2015-12-08T09:31:55Z</time>
      </trkpt>
      <trkpt lat="45.01269" lon="4.4831">
        <ele>568</ele>
        <time>2015-12-08T09:31:59Z</time>
      </trkpt>
      <trkpt lat="45.01269" lon="4.48294">
        <ele>568</ele>
        <time>2015-12-08T09:32:04Z</time>
      </trkpt>
      <trkpt lat="45.01268" lon="4.48285">
        <ele>569</ele>
        <time>2015-12-08T09:32:07Z</time>
      </trkpt>
      <trkpt lat="45.01264" lon="4.48269">
        <ele>569</ele>
        <time>2015-12-08T09:32:12Z</time>
      </trkpt>
      <trkpt lat="45.0126" lon="4.4826">
        <ele>569</ele>
        <time>2015-12-08T09:32:17Z</time>
      </trkpt>
      <trkpt lat="45.01255" lon="4.48249">
        <ele>569</ele>
        <time>2015-12-08T09:32:21Z</time>
      </trkpt>
      <trkpt lat="45.01257" lon="4.48237">
        <ele>572</ele>
        <time>2015-12-08T09:32:32Z</time>
      </trkpt>
      <trkpt lat="45.01257" lon="4.48225">
        <ele>573</ele>
        <time>2015-12-08T09:32:38Z</time>
      </trkpt>
      <trkpt lat="45.01253" lon="4.48215">
        <ele>575</ele>
        <time>2015-12-08T09:32:47Z</time>
      </trkpt>
      <trkpt lat="45.01249" lon="4.48205">
        <ele>577</ele>
        <time>2015-12-08T09:32:54Z</time>
      </trkpt>
      <trkpt lat="45.01245" lon="4.482">
        <ele>577</ele>
        <time>2015-12-08T09:32:57Z</time>
      </trkpt>
      <trkpt lat="45.01241" lon="4.48193">
        <ele>578</ele>
        <time>2015-12-08T09:33:01Z</time>
      </trkpt>
      <trkpt lat="45.01237" lon="4.48188">
        <ele>579</ele>
        <time>2015-12-08T09:33:05Z</time>
      </trkpt>
      <trkpt lat="45.01229" lon="4.48185">
        <ele>579</ele>
        <time>2015-12-08T09:33:10Z</time>
      </trkpt>
      <trkpt lat="45.01224" lon="4.48195">
        <ele>580</ele>
        <time>2015-12-08T09:33:16Z</time>
      </trkpt>
      <trkpt lat="45.0122" lon="4.48206">
        <ele>582</ele>
        <time>2015-12-08T09:33:23Z</time>
      </trkpt>
      <trkpt lat="45.0122" lon="4.48215">
        <ele>585</ele>
        <time>2015-12-08T09:33:30Z</time>
      </trkpt>
      <trkpt lat="45.01217" lon="4.48225">
        <ele>586</ele>
        <time>2015-12-08T09:33:35Z</time>
      </trkpt>
      <trkpt lat="45.01213" lon="4.48236">
        <ele>587</ele>
        <time>2015-12-08T09:33:41Z</time>
      </trkpt>
      <trkpt lat="45.01208" lon="4.48243">
        <ele>589</ele>
        <time>2015-12-08T09:33:48Z</time>
      </trkpt>
      <trkpt lat="45.01202" lon="4.48253">
        <ele>589</ele>
        <time>2015-12-08T09:33:53Z</time>
      </trkpt>
      <trkpt lat="45.01196" lon="4.48258">
        <ele>591</ele>
        <time>2015-12-08T09:34:01Z</time>
      </trkpt>
      <trkpt lat="45.01194" lon="4.48268">
        <ele>593</ele>
        <time>2015-12-08T09:34:06Z</time>
      </trkpt>
      <trkpt lat="45.01192" lon="4.48278">
        <ele>594</ele>
        <time>2015-12-08T09:34:11Z</time>
      </trkpt>
      <trkpt lat="45.0119" lon="4.48288">
        <ele>596</ele>
        <time>2015-12-08T09:34:23Z</time>
      </trkpt>
      <trkpt lat="45.01188" lon="4.48298">
        <ele>597</ele>
        <time>2015-12-08T09:34:27Z</time>
      </trkpt>
      <trkpt lat="45.01183" lon="4.48308">
        <ele>597</ele>
        <time>2015-12-08T09:34:32Z</time>
      </trkpt>
      <trkpt lat="45.01178" lon="4.48325">
        <ele>598</ele>
        <time>2015-12-08T09:34:37Z</time>
      </trkpt>
      <trkpt lat="45.01173" lon="4.48345">
        <ele>598</ele>
        <time>2015-12-08T09:34:42Z</time>
      </trkpt>
      <trkpt lat="45.01169" lon="4.48358">
        <ele>598</ele>
        <time>2015-12-08T09:34:46Z</time>
      </trkpt>
      <trkpt lat="45.01163" lon="4.48368">
        <ele>599</ele>
        <time>2015-12-08T09:34:50Z</time>
      </trkpt>
      <trkpt lat="45.01153" lon="4.48378">
        <ele>599</ele>
        <time>2015-12-08T09:34:55Z</time>
      </trkpt>
      <trkpt lat="45.01145" lon="4.48392">
        <ele>599</ele>
        <time>2015-12-08T09:34:59Z</time>
      </trkpt>
      <trkpt lat="45.01136" lon="4.48405">
        <ele>597</ele>
        <time>2015-12-08T09:35:03Z</time>
      </trkpt>
      <trkpt lat="45.01123" lon="4.48417">
        <ele>597</ele>
        <time>2015-12-08T09:35:08Z</time>
      </trkpt>
      <trkpt lat="45.01115" lon="4.4843">
        <ele>597</ele>
        <time>2015-12-08T09:35:12Z</time>
      </trkpt>
      <trkpt lat="45.01109" lon="4.48454">
        <ele>597</ele>
        <time>2015-12-08T09:35:17Z</time>
      </trkpt>
      <trkpt lat="45.01105" lon="4.48464">
        <ele>596</ele>
        <time>2015-12-08T09:35:21Z</time>
      </trkpt>
      <trkpt lat="45.01101" lon="4.48476">
        <ele>596</ele>
        <time>2015-12-08T09:35:25Z</time>
      </trkpt>
      <trkpt lat="45.01098" lon="4.48485">
        <ele>595</ele>
        <time>2015-12-08T09:35:28Z</time>
      </trkpt>
      <trkpt lat="45.01094" lon="4.48493">
        <ele>595</ele>
        <time>2015-12-08T09:35:31Z</time>
      </trkpt>
      <trkpt lat="45.0109" lon="4.48501">
        <ele>596</ele>
        <time>2015-12-08T09:35:34Z</time>
      </trkpt>
      <trkpt lat="45.0108" lon="4.48508">
        <ele>596</ele>
        <time>2015-12-08T09:35:39Z</time>
      </trkpt>
      <trkpt lat="45.01073" lon="4.48509">
        <ele>594</ele>
        <time>2015-12-08T09:35:42Z</time>
      </trkpt>
      <trkpt lat="45.01065" lon="4.48508">
        <ele>593</ele>
        <time>2015-12-08T09:35:46Z</time>
      </trkpt>
      <trkpt lat="45.01053" lon="4.48507">
        <ele>591</ele>
        <time>2015-12-08T09:35:51Z</time>
      </trkpt>
      <trkpt lat="45.01042" lon="4.48505">
        <ele>591</ele>
        <time>2015-12-08T09:35:56Z</time>
      </trkpt>
      <trkpt lat="45.01033" lon="4.48503">
        <ele>590</ele>
        <time>2015-12-08T09:36:00Z</time>
      </trkpt>
      <trkpt lat="45.01025" lon="4.48502">
        <ele>589</ele>
        <time>2015-12-08T09:36:04Z</time>
      </trkpt>
      <trkpt lat="45.01016" lon="4.485">
        <ele>589</ele>
        <time>2015-12-08T09:36:08Z</time>
      </trkpt>
      <trkpt lat="45.01004" lon="4.48501">
        <ele>589</ele>
        <time>2015-12-08T09:36:13Z</time>
      </trkpt>
      <trkpt lat="45.00996" lon="4.48502">
        <ele>590</ele>
        <time>2015-12-08T09:36:17Z</time>
      </trkpt>
      <trkpt lat="45.00987" lon="4.48503">
        <ele>591</ele>
        <time>2015-12-08T09:36:25Z</time>
      </trkpt>
      <trkpt lat="45.00978" lon="4.48502">
        <ele>593</ele>
        <time>2015-12-08T09:36:32Z</time>
      </trkpt>
      <trkpt lat="45.00969" lon="4.48501">
        <ele>593</ele>
        <time>2015-12-08T09:36:38Z</time>
      </trkpt>
      <trkpt lat="45.00961" lon="4.485">
        <ele>594</ele>
        <time>2015-12-08T09:36:47Z</time>
      </trkpt>
      <trkpt lat="45.00956" lon="4.48493">
        <ele>595</ele>
        <time>2015-12-08T09:36:54Z</time>
      </trkpt>
      <trkpt lat="45.00951" lon="4.485">
        <ele>595</ele>
        <time>2015-12-08T09:37:04Z</time>
      </trkpt>
      <trkpt lat="45.00943" lon="4.48505">
        <ele>595</ele>
        <time>2015-12-08T09:37:11Z</time>
      </trkpt>
      <trkpt lat="45.00937" lon="4.48508">
        <ele>596</ele>
        <time>2015-12-08T09:37:17Z</time>
      </trkpt>
      <trkpt lat="45.0093" lon="4.48512">
        <ele>597</ele>
        <time>2015-12-08T09:37:23Z</time>
      </trkpt>
      <trkpt lat="45.00924" lon="4.48518">
        <ele>598</ele>
        <time>2015-12-08T09:37:29Z</time>
      </trkpt>
      <trkpt lat="45.00916" lon="4.4852">
        <ele>599</ele>
        <time>2015-12-08T09:37:35Z</time>
      </trkpt>
      <trkpt lat="45.00908" lon="4.48522">
        <ele>600</ele>
        <time>2015-12-08T09:37:42Z</time>
      </trkpt>
      <trkpt lat="45.009" lon="4.4852">
        <ele>603</ele>
        <time>2015-12-08T09:37:52Z</time>
      </trkpt>
      <trkpt lat="45.00893" lon="4.4852">
        <ele>603</ele>
        <time>2015-12-08T09:37:55Z</time>
      </trkpt>
      <trkpt lat="45.00879" lon="4.48522">
        <ele>604</ele>
        <time>2015-12-08T09:38:00Z</time>
      </trkpt>
      <trkpt lat="45.0087" lon="4.48522">
        <ele>605</ele>
        <time>2015-12-08T09:38:04Z</time>
      </trkpt>
      <trkpt lat="45.00864" lon="4.48524">
        <ele>605</ele>
        <time>2015-12-08T09:39:07Z</time>
      </trkpt>
      <trkpt lat="45.00853" lon="4.4852">
        <ele>607</ele>
        <time>2015-12-08T09:39:12Z</time>
      </trkpt>
      <trkpt lat="45.00845" lon="4.48522">
        <ele>607</ele>
        <time>2015-12-08T09:39:16Z</time>
      </trkpt>
      <trkpt lat="45.00831" lon="4.48523">
        <ele>606</ele>
        <time>2015-12-08T09:39:21Z</time>
      </trkpt>
      <trkpt lat="45.00814" lon="4.48523">
        <ele>606</ele>
        <time>2015-12-08T09:39:26Z</time>
      </trkpt>
      <trkpt lat="45.00804" lon="4.48519">
        <ele>606</ele>
        <time>2015-12-08T09:39:29Z</time>
      </trkpt>
      <trkpt lat="45.00788" lon="4.48513">
        <ele>607</ele>
        <time>2015-12-08T09:39:33Z</time>
      </trkpt>
      <trkpt lat="45.00772" lon="4.48508">
        <ele>607</ele>
        <time>2015-12-08T09:39:37Z</time>
      </trkpt>
      <trkpt lat="45.00748" lon="4.48499">
        <ele>607</ele>
        <time>2015-12-08T09:39:42Z</time>
      </trkpt>
      <trkpt lat="45.00721" lon="4.48484">
        <ele>607</ele>
        <time>2015-12-08T09:39:47Z</time>
      </trkpt>
      <trkpt lat="45.00703" lon="4.48477">
        <ele>606</ele>
        <time>2015-12-08T09:39:50Z</time>
      </trkpt>
      <trkpt lat="45.00672" lon="4.48468">
        <ele>606</ele>
        <time>2015-12-08T09:39:55Z</time>
      </trkpt>
      <trkpt lat="45.00649" lon="4.48476">
        <ele>605</ele>
        <time>2015-12-08T09:39:59Z</time>
      </trkpt>
      <trkpt lat="45.00636" lon="4.48492">
        <ele>605</ele>
        <time>2015-12-08T09:40:03Z</time>
      </trkpt>
      <trkpt lat="45.00623" lon="4.48511">
        <ele>604</ele>
        <time>2015-12-08T09:40:07Z</time>
      </trkpt>
      <trkpt lat="45.006" lon="4.48548">
        <ele>603</ele>
        <time>2015-12-08T09:40:12Z</time>
      </trkpt>
      <trkpt lat="45.00583" lon="4.48575">
        <ele>602</ele>
        <time>2015-12-08T09:40:15Z</time>
      </trkpt>
      <trkpt lat="45.00562" lon="4.486">
        <ele>600</ele>
        <time>2015-12-08T09:40:19Z</time>
      </trkpt>
      <trkpt lat="45.0054" lon="4.48606">
        <ele>598</ele>
        <time>2015-12-08T09:40:23Z</time>
      </trkpt>
      <trkpt lat="45.00526" lon="4.48599">
        <ele>595</ele>
        <time>2015-12-08T09:40:26Z</time>
      </trkpt>
      <trkpt lat="45.00511" lon="4.48571">
        <ele>591</ele>
        <time>2015-12-08T09:40:31Z</time>
      </trkpt>
      <trkpt lat="45.00502" lon="4.48543">
        <ele>589</ele>
        <time>2015-12-08T09:40:35Z</time>
      </trkpt>
      <trkpt lat="45.00492" lon="4.48516">
        <ele>588</ele>
        <time>2015-12-08T09:40:39Z</time>
      </trkpt>
      <trkpt lat="45.00485" lon="4.48496">
        <ele>587</ele>
        <time>2015-12-08T09:40:42Z</time>
      </trkpt>
      <trkpt lat="45.00477" lon="4.4847">
        <ele>587</ele>
        <time>2015-12-08T09:40:46Z</time>
      </trkpt>
      <trkpt lat="45.00471" lon="4.48444">
        <ele>586</ele>
        <time>2015-12-08T09:40:50Z</time>
      </trkpt>
      <trkpt lat="45.00463" lon="4.48415">
        <ele>585</ele>
        <time>2015-12-08T09:40:54Z</time>
      </trkpt>
      <trkpt lat="45.00453" lon="4.48387">
        <ele>583</ele>
        <time>2015-12-08T09:40:58Z</time>
      </trkpt>
      <trkpt lat="45.00439" lon="4.48358">
        <ele>583</ele>
        <time>2015-12-08T09:41:02Z</time>
      </trkpt>
      <trkpt lat="45.00429" lon="4.48329">
        <ele>582</ele>
        <time>2015-12-08T09:41:05Z</time>
      </trkpt>
      <trkpt lat="45.00422" lon="4.48291">
        <ele>581</ele>
        <time>2015-12-08T09:41:09Z</time>
      </trkpt>
      <trkpt lat="45.00418" lon="4.48263">
        <ele>581</ele>
        <time>2015-12-08T09:41:13Z</time>
      </trkpt>
      <trkpt lat="45.00415" lon="4.48246">
        <ele>581</ele>
        <time>2015-12-08T09:41:16Z</time>
      </trkpt>
      <trkpt lat="45.00414" lon="4.48225">
        <ele>582</ele>
        <time>2015-12-08T09:41:20Z</time>
      </trkpt>
      <trkpt lat="45.00416" lon="4.48203">
        <ele>583</ele>
        <time>2015-12-08T09:41:25Z</time>
      </trkpt>
      <trkpt lat="45.00414" lon="4.48186">
        <ele>584</ele>
        <time>2015-12-08T09:41:29Z</time>
      </trkpt>
      <trkpt lat="45.00409" lon="4.48166">
        <ele>584</ele>
        <time>2015-12-08T09:41:34Z</time>
      </trkpt>
      <trkpt lat="45.00406" lon="4.48153">
        <ele>585</ele>
        <time>2015-12-08T09:41:37Z</time>
      </trkpt>
      <trkpt lat="45.00401" lon="4.48139">
        <ele>586</ele>
        <time>2015-12-08T09:41:41Z</time>
      </trkpt>
      <trkpt lat="45.00395" lon="4.48126">
        <ele>588</ele>
        <time>2015-12-08T09:41:45Z</time>
      </trkpt>
      <trkpt lat="45.0039" lon="4.48115">
        <ele>589</ele>
        <time>2015-12-08T09:41:49Z</time>
      </trkpt>
      <trkpt lat="45.00385" lon="4.48104">
        <ele>591</ele>
        <time>2015-12-08T09:41:53Z</time>
      </trkpt>
      <trkpt lat="45.00382" lon="4.48089">
        <ele>592</ele>
        <time>2015-12-08T09:41:58Z</time>
      </trkpt>
      <trkpt lat="45.00381" lon="4.48081">
        <ele>592</ele>
        <time>2015-12-08T09:42:01Z</time>
      </trkpt>
      <trkpt lat="45.00379" lon="4.48069">
        <ele>593</ele>
        <time>2015-12-08T09:42:05Z</time>
      </trkpt>
      <trkpt lat="45.00379" lon="4.48058">
        <ele>594</ele>
        <time>2015-12-08T09:42:09Z</time>
      </trkpt>
      <trkpt lat="45.00379" lon="4.48045">
        <ele>595</ele>
        <time>2015-12-08T09:42:13Z</time>
      </trkpt>
      <trkpt lat="45.00377" lon="4.48031">
        <ele>595</ele>
        <time>2015-12-08T09:42:16Z</time>
      </trkpt>
      <trkpt lat="45.00376" lon="4.48012">
        <ele>594</ele>
        <time>2015-12-08T09:42:20Z</time>
      </trkpt>
      <trkpt lat="45.00371" lon="4.47989">
        <ele>595</ele>
        <time>2015-12-08T09:42:25Z</time>
      </trkpt>
      <trkpt lat="45.00363" lon="4.47967">
        <ele>596</ele>
        <time>2015-12-08T09:42:29Z</time>
      </trkpt>
      <trkpt lat="45.00352" lon="4.47942">
        <ele>598</ele>
        <time>2015-12-08T09:42:33Z</time>
      </trkpt>
      <trkpt lat="45.00342" lon="4.47926">
        <ele>599</ele>
        <time>2015-12-08T09:42:37Z</time>
      </trkpt>
      <trkpt lat="45.00332" lon="4.47909">
        <ele>600</ele>
        <time>2015-12-08T09:42:41Z</time>
      </trkpt>
      <trkpt lat="45.0032" lon="4.47895">
        <ele>600</ele>
        <time>2015-12-08T09:42:45Z</time>
      </trkpt>
      <trkpt lat="45.00312" lon="4.47883">
        <ele>600</ele>
        <time>2015-12-08T09:42:49Z</time>
      </trkpt>
      <trkpt lat="45.00307" lon="4.47875">
        <ele>601</ele>
        <time>2015-12-08T09:42:53Z</time>
      </trkpt>
      <trkpt lat="45.00304" lon="4.47867">
        <ele>601</ele>
        <time>2015-12-08T09:42:57Z</time>
      </trkpt>
      <trkpt lat="45.00301" lon="4.47858">
        <ele>602</ele>
        <time>2015-12-08T09:43:01Z</time>
      </trkpt>
      <trkpt lat="45.00298" lon="4.47845">
        <ele>603</ele>
        <time>2015-12-08T09:43:06Z</time>
      </trkpt>
      <trkpt lat="45.00292" lon="4.47835">
        <ele>604</ele>
        <time>2015-12-08T09:43:11Z</time>
      </trkpt>
      <trkpt lat="45.00287" lon="4.47828">
        <ele>604</ele>
        <time>2015-12-08T09:43:15Z</time>
      </trkpt>
      <trkpt lat="45.00283" lon="4.47822">
        <ele>605</ele>
        <time>2015-12-08T09:43:19Z</time>
      </trkpt>
      <trkpt lat="45.00278" lon="4.47811">
        <ele>607</ele>
        <time>2015-12-08T09:43:23Z</time>
      </trkpt>
      <trkpt lat="45.00267" lon="4.47793">
        <ele>607</ele>
        <time>2015-12-08T09:43:28Z</time>
      </trkpt>
      <trkpt lat="45.00261" lon="4.47786">
        <ele>608</ele>
        <time>2015-12-08T09:43:33Z</time>
      </trkpt>
      <trkpt lat="45.00257" lon="4.47779">
        <ele>610</ele>
        <time>2015-12-08T09:43:37Z</time>
      </trkpt>
      <trkpt lat="45.00249" lon="4.47772">
        <ele>611</ele>
        <time>2015-12-08T09:43:41Z</time>
      </trkpt>
      <trkpt lat="45.00244" lon="4.47764">
        <ele>612</ele>
        <time>2015-12-08T09:43:45Z</time>
      </trkpt>
      <trkpt lat="45.0024" lon="4.47757">
        <ele>613</ele>
        <time>2015-12-08T09:43:48Z</time>
      </trkpt>
      <trkpt lat="45.00233" lon="4.47747">
        <ele>613</ele>
        <time>2015-12-08T09:43:53Z</time>
      </trkpt>
      <trkpt lat="45.00223" lon="4.47745">
        <ele>613</ele>
        <time>2015-12-08T09:43:57Z</time>
      </trkpt>
      <trkpt lat="45.00216" lon="4.47752">
        <ele>613</ele>
        <time>2015-12-08T09:44:01Z</time>
      </trkpt>
      <trkpt lat="45.0021" lon="4.47761">
        <ele>615</ele>
        <time>2015-12-08T09:44:05Z</time>
      </trkpt>
      <trkpt lat="45.002" lon="4.47774">
        <ele>615</ele>
        <time>2015-12-08T09:44:10Z</time>
      </trkpt>
      <trkpt lat="45.00193" lon="4.47782">
        <ele>616</ele>
        <time>2015-12-08T09:44:14Z</time>
      </trkpt>
      <trkpt lat="45.00186" lon="4.47789">
        <ele>616</ele>
        <time>2015-12-08T09:44:18Z</time>
      </trkpt>
      <trkpt lat="45.00177" lon="4.47804">
        <ele>616</ele>
        <time>2015-12-08T09:44:22Z</time>
      </trkpt>
      <trkpt lat="45.0017" lon="4.47826">
        <ele>616</ele>
        <time>2015-12-08T09:44:26Z</time>
      </trkpt>
      <trkpt lat="45.00159" lon="4.47852">
        <ele>615</ele>
        <time>2015-12-08T09:44:30Z</time>
      </trkpt>
      <trkpt lat="45.00148" lon="4.4787">
        <ele>616</ele>
        <time>2015-12-08T09:44:34Z</time>
      </trkpt>
      <trkpt lat="45.00143" lon="4.47879">
        <ele>616</ele>
        <time>2015-12-08T09:44:37Z</time>
      </trkpt>
      <trkpt lat="45.00134" lon="4.47894">
        <ele>616</ele>
        <time>2015-12-08T09:44:42Z</time>
      </trkpt>
      <trkpt lat="45.00128" lon="4.47899">
        <ele>616</ele>
        <time>2015-12-08T09:44:45Z</time>
      </trkpt>
      <trkpt lat="45.00116" lon="4.47898">
        <ele>617</ele>
        <time>2015-12-08T09:44:49Z</time>
      </trkpt>
      <trkpt lat="45.00105" lon="4.47896">
        <ele>618</ele>
        <time>2015-12-08T09:44:53Z</time>
      </trkpt>
      <trkpt lat="45.00096" lon="4.47893">
        <ele>617</ele>
        <time>2015-12-08T09:44:57Z</time>
      </trkpt>
      <trkpt lat="45.00087" lon="4.4789">
        <ele>617</ele>
        <time>2015-12-08T09:45:01Z</time>
      </trkpt>
      <trkpt lat="45.00073" lon="4.47891">
        <ele>618</ele>
        <time>2015-12-08T09:45:06Z</time>
      </trkpt>
      <trkpt lat="45.00066" lon="4.479">
        <ele>619</ele>
        <time>2015-12-08T09:45:10Z</time>
      </trkpt>
      <trkpt lat="45.00062" lon="4.47912">
        <ele>620</ele>
        <time>2015-12-08T09:45:14Z</time>
      </trkpt>
      <trkpt lat="45.00062" lon="4.47923">
        <ele>622</ele>
        <time>2015-12-08T09:45:18Z</time>
      </trkpt>
      <trkpt lat="45.00064" lon="4.47932">
        <ele>623</ele>
        <time>2015-12-08T09:45:22Z</time>
      </trkpt>
      <trkpt lat="45.00061" lon="4.47946">
        <ele>623</ele>
        <time>2015-12-08T09:45:27Z</time>
      </trkpt>
      <trkpt lat="45.00055" lon="4.47958">
        <ele>624</ele>
        <time>2015-12-08T09:45:31Z</time>
      </trkpt>
      <trkpt lat="45.0005" lon="4.47963">
        <ele>625</ele>
        <time>2015-12-08T09:45:34Z</time>
      </trkpt>
      <trkpt lat="45.00043" lon="4.4797">
        <ele>627</ele>
        <time>2015-12-08T09:45:40Z</time>
      </trkpt>
      <trkpt lat="45.00035" lon="4.47979">
        <ele>628</ele>
        <time>2015-12-08T09:45:45Z</time>
      </trkpt>
      <trkpt lat="45.00029" lon="4.47984">
        <ele>630</ele>
        <time>2015-12-08T09:45:49Z</time>
      </trkpt>
      <trkpt lat="45.00023" lon="4.4799">
        <ele>631</ele>
        <time>2015-12-08T09:45:54Z</time>
      </trkpt>
      <trkpt lat="45.00018" lon="4.48001">
        <ele>632</ele>
        <time>2015-12-08T09:45:58Z</time>
      </trkpt>
      <trkpt lat="45.00013" lon="4.48012">
        <ele>632</ele>
        <time>2015-12-08T09:46:02Z</time>
      </trkpt>
      <trkpt lat="45.00007" lon="4.48025">
        <ele>632</ele>
        <time>2015-12-08T09:46:06Z</time>
      </trkpt>
      <trkpt lat="44.99999" lon="4.48035">
        <ele>634</ele>
        <time>2015-12-08T09:46:11Z</time>
      </trkpt>
      <trkpt lat="44.99994" lon="4.4804">
        <ele>635</ele>
        <time>2015-12-08T09:46:14Z</time>
      </trkpt>
      <trkpt lat="44.99987" lon="4.48047">
        <ele>636</ele>
        <time>2015-12-08T09:46:18Z</time>
      </trkpt>
      <trkpt lat="44.99979" lon="4.48056">
        <ele>637</ele>
        <time>2015-12-08T09:46:23Z</time>
      </trkpt>
      <trkpt lat="44.99974" lon="4.48065">
        <ele>637</ele>
        <time>2015-12-08T09:46:27Z</time>
      </trkpt>
      <trkpt lat="44.99965" lon="4.48073">
        <ele>638</ele>
        <time>2015-12-08T09:46:31Z</time>
      </trkpt>
      <trkpt lat="44.99954" lon="4.48078">
        <ele>638</ele>
        <time>2015-12-08T09:46:35Z</time>
      </trkpt>
      <trkpt lat="44.99945" lon="4.4808">
        <ele>638</ele>
        <time>2015-12-08T09:46:38Z</time>
      </trkpt>
      <trkpt lat="44.99935" lon="4.48073">
        <ele>638</ele>
        <time>2015-12-08T09:46:43Z</time>
      </trkpt>
      <trkpt lat="44.99919" lon="4.4807">
        <ele>638</ele>
        <time>2015-12-08T09:46:48Z</time>
      </trkpt>
      <trkpt lat="44.99908" lon="4.48071">
        <ele>639</ele>
        <time>2015-12-08T09:46:51Z</time>
      </trkpt>
      <trkpt lat="44.99894" lon="4.48071">
        <ele>639</ele>
        <time>2015-12-08T09:46:55Z</time>
      </trkpt>
      <trkpt lat="44.9988" lon="4.48082">
        <ele>639</ele>
        <time>2015-12-08T09:47:00Z</time>
      </trkpt>
      <trkpt lat="44.9988" lon="4.48096">
        <ele>641</ele>
        <time>2015-12-08T09:47:05Z</time>
      </trkpt>
      <trkpt lat="44.99883" lon="4.48108">
        <ele>643</ele>
        <time>2015-12-08T09:47:09Z</time>
      </trkpt>
      <trkpt lat="44.99886" lon="4.48122">
        <ele>644</ele>
        <time>2015-12-08T09:47:13Z</time>
      </trkpt>
      <trkpt lat="44.99886" lon="4.4814">
        <ele>647</ele>
        <time>2015-12-08T09:47:18Z</time>
      </trkpt>
      <trkpt lat="44.99884" lon="4.48155">
        <ele>648</ele>
        <time>2015-12-08T09:47:22Z</time>
      </trkpt>
      <trkpt lat="44.99878" lon="4.48175">
        <ele>649</ele>
        <time>2015-12-08T09:47:27Z</time>
      </trkpt>
      <trkpt lat="44.99877" lon="4.48188">
        <ele>650</ele>
        <time>2015-12-08T09:47:31Z</time>
      </trkpt>
      <trkpt lat="44.99882" lon="4.48208">
        <ele>651</ele>
        <time>2015-12-08T09:47:36Z</time>
      </trkpt>
      <trkpt lat="44.99887" lon="4.48221">
        <ele>652</ele>
        <time>2015-12-08T09:47:39Z</time>
      </trkpt>
      <trkpt lat="44.9989" lon="4.4824">
        <ele>652</ele>
        <time>2015-12-08T09:47:43Z</time>
      </trkpt>
      <trkpt lat="44.99893" lon="4.48256">
        <ele>652</ele>
        <time>2015-12-08T09:47:47Z</time>
      </trkpt>
      <trkpt lat="44.99895" lon="4.48273">
        <ele>653</ele>
        <time>2015-12-08T09:47:51Z</time>
      </trkpt>
      <trkpt lat="44.99891" lon="4.48296">
        <ele>655</ele>
        <time>2015-12-08T09:47:56Z</time>
      </trkpt>
      <trkpt lat="44.99887" lon="4.48311">
        <ele>655</ele>
        <time>2015-12-08T09:48:00Z</time>
      </trkpt>
      <trkpt lat="44.99881" lon="4.48326">
        <ele>655</ele>
        <time>2015-12-08T09:48:04Z</time>
      </trkpt>
      <trkpt lat="44.99873" lon="4.48339">
        <ele>653</ele>
        <time>2015-12-08T09:48:08Z</time>
      </trkpt>
      <trkpt lat="44.99862" lon="4.48354">
        <ele>652</ele>
        <time>2015-12-08T09:48:12Z</time>
      </trkpt>
      <trkpt lat="44.99849" lon="4.48367">
        <ele>652</ele>
        <time>2015-12-08T09:48:16Z</time>
      </trkpt>
      <trkpt lat="44.9984" lon="4.48373">
        <ele>652</ele>
        <time>2015-12-08T09:48:19Z</time>
      </trkpt>
      <trkpt lat="44.99826" lon="4.48381">
        <ele>651</ele>
        <time>2015-12-08T09:48:23Z</time>
      </trkpt>
      <trkpt lat="44.99808" lon="4.48388">
        <ele>649</ele>
        <time>2015-12-08T09:48:27Z</time>
      </trkpt>
      <trkpt lat="44.99788" lon="4.48386">
        <ele>648</ele>
        <time>2015-12-08T09:48:32Z</time>
      </trkpt>
      <trkpt lat="44.99771" lon="4.48386">
        <ele>646</ele>
        <time>2015-12-08T09:48:37Z</time>
      </trkpt>
      <trkpt lat="44.99755" lon="4.48407">
        <ele>644</ele>
        <time>2015-12-08T09:48:42Z</time>
      </trkpt>
      <trkpt lat="44.99743" lon="4.48433">
        <ele>643</ele>
        <time>2015-12-08T09:48:47Z</time>
      </trkpt>
      <trkpt lat="44.99731" lon="4.48451">
        <ele>642</ele>
        <time>2015-12-08T09:48:51Z</time>
      </trkpt>
      <trkpt lat="44.99717" lon="4.48473">
        <ele>641</ele>
        <time>2015-12-08T09:48:55Z</time>
      </trkpt>
      <trkpt lat="44.99705" lon="4.48488">
        <ele>640</ele>
        <time>2015-12-08T09:48:58Z</time>
      </trkpt>
      <trkpt lat="44.99685" lon="4.48513">
        <ele>639</ele>
        <time>2015-12-08T09:49:02Z</time>
      </trkpt>
      <trkpt lat="44.99662" lon="4.48554">
        <ele>637</ele>
        <time>2015-12-08T09:49:07Z</time>
      </trkpt>
      <trkpt lat="44.99646" lon="4.48589">
        <ele>637</ele>
        <time>2015-12-08T09:49:11Z</time>
      </trkpt>
      <trkpt lat="44.99633" lon="4.48621">
        <ele>636</ele>
        <time>2015-12-08T09:49:15Z</time>
      </trkpt>
      <trkpt lat="44.99626" lon="4.48646">
        <ele>636</ele>
        <time>2015-12-08T09:49:19Z</time>
      </trkpt>
      <trkpt lat="44.99624" lon="4.48674">
        <ele>636</ele>
        <time>2015-12-08T09:49:23Z</time>
      </trkpt>
      <trkpt lat="44.99628" lon="4.48704">
        <ele>634</ele>
        <time>2015-12-08T09:49:27Z</time>
      </trkpt>
      <trkpt lat="44.99636" lon="4.48733">
        <ele>634</ele>
        <time>2015-12-08T09:49:31Z</time>
      </trkpt>
      <trkpt lat="44.99644" lon="4.48764">
        <ele>633</ele>
        <time>2015-12-08T09:49:35Z</time>
      </trkpt>
      <trkpt lat="44.99651" lon="4.48791">
        <ele>633</ele>
        <time>2015-12-08T09:49:39Z</time>
      </trkpt>
      <trkpt lat="44.99657" lon="4.48811">
        <ele>634</ele>
        <time>2015-12-08T09:49:42Z</time>
      </trkpt>
      <trkpt lat="44.99661" lon="4.48829">
        <ele>633</ele>
        <time>2015-12-08T09:49:45Z</time>
      </trkpt>
      <trkpt lat="44.99664" lon="4.48861">
        <ele>631</ele>
        <time>2015-12-08T09:49:49Z</time>
      </trkpt>
      <trkpt lat="44.99666" lon="4.48895">
        <ele>629</ele>
        <time>2015-12-08T09:49:53Z</time>
      </trkpt>
      <trkpt lat="44.99674" lon="4.48938">
        <ele>627</ele>
        <time>2015-12-08T09:49:58Z</time>
      </trkpt>
      <trkpt lat="44.99678" lon="4.48967">
        <ele>626</ele>
        <time>2015-12-08T09:50:02Z</time>
      </trkpt>
      <trkpt lat="44.99683" lon="4.48992">
        <ele>626</ele>
        <time>2015-12-08T09:50:06Z</time>
      </trkpt>
      <trkpt lat="44.99687" lon="4.49022">
        <ele>627</ele>
        <time>2015-12-08T09:50:11Z</time>
      </trkpt>
      <trkpt lat="44.99687" lon="4.49048">
        <ele>626</ele>
        <time>2015-12-08T09:50:15Z</time>
      </trkpt>
      <trkpt lat="44.99686" lon="4.49068">
        <ele>625</ele>
        <time>2015-12-08T09:50:18Z</time>
      </trkpt>
      <trkpt lat="44.99684" lon="4.49084">
        <ele>625</ele>
        <time>2015-12-08T09:50:21Z</time>
      </trkpt>
      <trkpt lat="44.9968" lon="4.49101">
        <ele>625</ele>
        <time>2015-12-08T09:50:24Z</time>
      </trkpt>
      <trkpt lat="44.99678" lon="4.49119">
        <ele>625</ele>
        <time>2015-12-08T09:50:27Z</time>
      </trkpt>
      <trkpt lat="44.99675" lon="4.49142">
        <ele>625</ele>
        <time>2015-12-08T09:50:31Z</time>
      </trkpt>
      <trkpt lat="44.99671" lon="4.49168">
        <ele>624</ele>
        <time>2015-12-08T09:50:35Z</time>
      </trkpt>
      <trkpt lat="44.99669" lon="4.49197">
        <ele>624</ele>
        <time>2015-12-08T09:50:39Z</time>
      </trkpt>
      <trkpt lat="44.99664" lon="4.49219">
        <ele>626</ele>
        <time>2015-12-08T09:50:43Z</time>
      </trkpt>
      <trkpt lat="44.99657" lon="4.49241">
        <ele>628</ele>
        <time>2015-12-08T09:50:47Z</time>
      </trkpt>
      <trkpt lat="44.99653" lon="4.49267">
        <ele>627</ele>
        <time>2015-12-08T09:50:52Z</time>
      </trkpt>
      <trkpt lat="44.99647" lon="4.49286">
        <ele>629</ele>
        <time>2015-12-08T09:50:56Z</time>
      </trkpt>
      <trkpt lat="44.9964" lon="4.49307">
        <ele>629</ele>
        <time>2015-12-08T09:51:01Z</time>
      </trkpt>
      <trkpt lat="44.99642" lon="4.49331">
        <ele>627</ele>
        <time>2015-12-08T09:51:05Z</time>
      </trkpt>
      <trkpt lat="44.99646" lon="4.49354">
        <ele>625</ele>
        <time>2015-12-08T09:51:09Z</time>
      </trkpt>
      <trkpt lat="44.9965" lon="4.4937">
        <ele>624</ele>
        <time>2015-12-08T09:51:13Z</time>
      </trkpt>
      <trkpt lat="44.99654" lon="4.49391">
        <ele>622</ele>
        <time>2015-12-08T09:51:18Z</time>
      </trkpt>
      <trkpt lat="44.99657" lon="4.49407">
        <ele>620</ele>
        <time>2015-12-08T09:51:22Z</time>
      </trkpt>
      <trkpt lat="44.99658" lon="4.49416">
        <ele>620</ele>
        <time>2015-12-08T09:51:25Z</time>
      </trkpt>
      <trkpt lat="44.99661" lon="4.49427">
        <ele>620</ele>
        <time>2015-12-08T09:51:29Z</time>
      </trkpt>
      <trkpt lat="44.99662" lon="4.49437">
        <ele>619</ele>
        <time>2015-12-08T09:51:33Z</time>
      </trkpt>
      <trkpt lat="44.99664" lon="4.49456">
        <ele>617</ele>
        <time>2015-12-08T09:51:37Z</time>
      </trkpt>
      <trkpt lat="44.99668" lon="4.49475">
        <ele>614</ele>
        <time>2015-12-08T09:51:41Z</time>
      </trkpt>
      <trkpt lat="44.99659" lon="4.49496">
        <ele>613</ele>
        <time>2015-12-08T09:51:46Z</time>
      </trkpt>
      <trkpt lat="44.99655" lon="4.49506">
        <ele>612</ele>
        <time>2015-12-08T09:51:50Z</time>
      </trkpt>
      <trkpt lat="44.99648" lon="4.49523">
        <ele>609</ele>
        <time>2015-12-08T09:51:55Z</time>
      </trkpt>
      <trkpt lat="44.9964" lon="4.49535">
        <ele>607</ele>
        <time>2015-12-08T09:52:00Z</time>
      </trkpt>
      <trkpt lat="44.99636" lon="4.49543">
        <ele>606</ele>
        <time>2015-12-08T09:52:03Z</time>
      </trkpt>
      <trkpt lat="44.99633" lon="4.49558">
        <ele>604</ele>
        <time>2015-12-08T09:52:07Z</time>
      </trkpt>
      <trkpt lat="44.99629" lon="4.49577">
        <ele>602</ele>
        <time>2015-12-08T09:52:11Z</time>
      </trkpt>
      <trkpt lat="44.99621" lon="4.49595">
        <ele>600</ele>
        <time>2015-12-08T09:52:16Z</time>
      </trkpt>
      <trkpt lat="44.99613" lon="4.49608">
        <ele>600</ele>
        <time>2015-12-08T09:52:21Z</time>
      </trkpt>
      <trkpt lat="44.99609" lon="4.4962">
        <ele>599</ele>
        <time>2015-12-08T09:52:26Z</time>
      </trkpt>
      <trkpt lat="44.99604" lon="4.49629">
        <ele>597</ele>
        <time>2015-12-08T09:52:31Z</time>
      </trkpt>
      <trkpt lat="44.99599" lon="4.49642">
        <ele>596</ele>
        <time>2015-12-08T09:52:36Z</time>
      </trkpt>
      <trkpt lat="44.99601" lon="4.49654">
        <ele>593</ele>
        <time>2015-12-08T09:52:43Z</time>
      </trkpt>
      <trkpt lat="44.99603" lon="4.49665">
        <ele>591</ele>
        <time>2015-12-08T09:52:51Z</time>
      </trkpt>
      <trkpt lat="44.99602" lon="4.49677">
        <ele>590</ele>
        <time>2015-12-08T09:52:57Z</time>
      </trkpt>
      <trkpt lat="44.99598" lon="4.49688">
        <ele>587</ele>
        <time>2015-12-08T09:53:09Z</time>
      </trkpt>
      <trkpt lat="44.99596" lon="4.49698">
        <ele>586</ele>
        <time>2015-12-08T09:53:14Z</time>
      </trkpt>
      <trkpt lat="44.99596" lon="4.49711">
        <ele>585</ele>
        <time>2015-12-08T09:53:22Z</time>
      </trkpt>
      <trkpt lat="44.99593" lon="4.49721">
        <ele>584</ele>
        <time>2015-12-08T09:53:27Z</time>
      </trkpt>
      <trkpt lat="44.9959" lon="4.49728">
        <ele>583</ele>
        <time>2015-12-08T09:53:34Z</time>
      </trkpt>
      <trkpt lat="44.99592" lon="4.49741">
        <ele>582</ele>
        <time>2015-12-08T09:53:39Z</time>
      </trkpt>
      <trkpt lat="44.99591" lon="4.49752">
        <ele>580</ele>
        <time>2015-12-08T09:53:45Z</time>
      </trkpt>
      <trkpt lat="44.99597" lon="4.49762">
        <ele>578</ele>
        <time>2015-12-08T09:53:54Z</time>
      </trkpt>
      <trkpt lat="44.99602" lon="4.49773">
        <ele>577</ele>
        <time>2015-12-08T09:53:59Z</time>
      </trkpt>
      <trkpt lat="44.99604" lon="4.49787">
        <ele>576</ele>
        <time>2015-12-08T09:54:02Z</time>
      </trkpt>
      <trkpt lat="44.99603" lon="4.49808">
        <ele>575</ele>
        <time>2015-12-08T09:54:06Z</time>
      </trkpt>
      <trkpt lat="44.99603" lon="4.49829">
        <ele>574</ele>
        <time>2015-12-08T09:54:11Z</time>
      </trkpt>
      <trkpt lat="44.996" lon="4.49837">
        <ele>574</ele>
        <time>2015-12-08T09:54:14Z</time>
      </trkpt>
      <trkpt lat="44.99597" lon="4.49852">
        <ele>574</ele>
        <time>2015-12-08T09:54:19Z</time>
      </trkpt>
      <trkpt lat="44.99595" lon="4.49862">
        <ele>574</ele>
        <time>2015-12-08T09:54:23Z</time>
      </trkpt>
      <trkpt lat="44.99593" lon="4.49873">
        <ele>574</ele>
        <time>2015-12-08T09:54:26Z</time>
      </trkpt>
      <trkpt lat="44.99591" lon="4.49892">
        <ele>574</ele>
        <time>2015-12-08T09:54:31Z</time>
      </trkpt>
      <trkpt lat="44.99589" lon="4.49905">
        <ele>574</ele>
        <time>2015-12-08T09:54:34Z</time>
      </trkpt>
      <trkpt lat="44.99586" lon="4.49918">
        <ele>576</ele>
        <time>2015-12-08T09:54:38Z</time>
      </trkpt>
      <trkpt lat="44.99583" lon="4.49933">
        <ele>579</ele>
        <time>2015-12-08T09:54:42Z</time>
      </trkpt>
      <trkpt lat="44.99581" lon="4.49949">
        <ele>580</ele>
        <time>2015-12-08T09:54:46Z</time>
      </trkpt>
      <trkpt lat="44.99581" lon="4.4997">
        <ele>580</ele>
        <time>2015-12-08T09:54:51Z</time>
      </trkpt>
      <trkpt lat="44.9958" lon="4.49987">
        <ele>579</ele>
        <time>2015-12-08T09:54:55Z</time>
      </trkpt>
      <trkpt lat="44.99578" lon="4.50001">
        <ele>582</ele>
        <time>2015-12-08T09:54:58Z</time>
      </trkpt>
      <trkpt lat="44.99577" lon="4.50015">
        <ele>582</ele>
        <time>2015-12-08T09:55:02Z</time>
      </trkpt>
      <trkpt lat="44.99576" lon="4.50035">
        <ele>583</ele>
        <time>2015-12-08T09:55:07Z</time>
      </trkpt>
      <trkpt lat="44.99576" lon="4.50046">
        <ele>583</ele>
        <time>2015-12-08T09:55:11Z</time>
      </trkpt>
      <trkpt lat="44.99578" lon="4.50069">
        <ele>584</ele>
        <time>2015-12-08T09:55:15Z</time>
      </trkpt>
      <trkpt lat="44.99578" lon="4.50087">
        <ele>584</ele>
        <time>2015-12-08T09:55:20Z</time>
      </trkpt>
      <trkpt lat="44.9958" lon="4.50111">
        <ele>584</ele>
        <time>2015-12-08T09:55:24Z</time>
      </trkpt>
      <trkpt lat="44.99578" lon="4.5013">
        <ele>583</ele>
        <time>2015-12-08T09:55:28Z</time>
      </trkpt>
      <trkpt lat="44.99575" lon="4.50141">
        <ele>583</ele>
        <time>2015-12-08T09:55:32Z</time>
      </trkpt>
      <trkpt lat="44.9957" lon="4.50157">
        <ele>583</ele>
        <time>2015-12-08T09:55:37Z</time>
      </trkpt>
      <trkpt lat="44.99569" lon="4.50169">
        <ele>582</ele>
        <time>2015-12-08T09:55:40Z</time>
      </trkpt>
      <trkpt lat="44.99568" lon="4.502">
        <ele>584</ele>
        <time>2015-12-08T09:55:45Z</time>
      </trkpt>
      <trkpt lat="44.99567" lon="4.50221">
        <ele>586</ele>
        <time>2015-12-08T09:55:49Z</time>
      </trkpt>
      <trkpt lat="44.99562" lon="4.50238">
        <ele>587</ele>
        <time>2015-12-08T09:55:53Z</time>
      </trkpt>
      <trkpt lat="44.99554" lon="4.50258">
        <ele>587</ele>
        <time>2015-12-08T09:55:58Z</time>
      </trkpt>
      <trkpt lat="44.99545" lon="4.50283">
        <ele>587</ele>
        <time>2015-12-08T09:56:03Z</time>
      </trkpt>
      <trkpt lat="44.99538" lon="4.50301">
        <ele>587</ele>
        <time>2015-12-08T09:56:07Z</time>
      </trkpt>
      <trkpt lat="44.99536" lon="4.50324">
        <ele>586</ele>
        <time>2015-12-08T09:56:12Z</time>
      </trkpt>
      <trkpt lat="44.99536" lon="4.5035">
        <ele>584</ele>
        <time>2015-12-08T09:56:17Z</time>
      </trkpt>
      <trkpt lat="44.99535" lon="4.50368">
        <ele>582</ele>
        <time>2015-12-08T09:56:21Z</time>
      </trkpt>
      <trkpt lat="44.99535" lon="4.50392">
        <ele>581</ele>
        <time>2015-12-08T09:56:25Z</time>
      </trkpt>
      <trkpt lat="44.9953" lon="4.50416">
        <ele>579</ele>
        <time>2015-12-08T09:56:29Z</time>
      </trkpt>
      <trkpt lat="44.9952" lon="4.50451">
        <ele>576</ele>
        <time>2015-12-08T09:56:34Z</time>
      </trkpt>
      <trkpt lat="44.99508" lon="4.50478">
        <ele>572</ele>
        <time>2015-12-08T09:56:39Z</time>
      </trkpt>
      <trkpt lat="44.99502" lon="4.50492">
        <ele>571</ele>
        <time>2015-12-08T09:56:42Z</time>
      </trkpt>
      <trkpt lat="44.99496" lon="4.50503">
        <ele>568</ele>
        <time>2015-12-08T09:56:45Z</time>
      </trkpt>
      <trkpt lat="44.99488" lon="4.50516">
        <ele>566</ele>
        <time>2015-12-08T09:56:49Z</time>
      </trkpt>
      <trkpt lat="44.9948" lon="4.50532">
        <ele>564</ele>
        <time>2015-12-08T09:56:54Z</time>
      </trkpt>
      <trkpt lat="44.99479" lon="4.50544">
        <ele>562</ele>
        <time>2015-12-08T09:56:58Z</time>
      </trkpt>
      <trkpt lat="44.99486" lon="4.50556">
        <ele>560</ele>
        <time>2015-12-08T09:57:02Z</time>
      </trkpt>
      <trkpt lat="44.99492" lon="4.50582">
        <ele>557</ele>
        <time>2015-12-08T09:57:07Z</time>
      </trkpt>
      <trkpt lat="44.99488" lon="4.50622">
        <ele>554</ele>
        <time>2015-12-08T09:57:12Z</time>
      </trkpt>
      <trkpt lat="44.99489" lon="4.50649">
        <ele>551</ele>
        <time>2015-12-08T09:57:16Z</time>
      </trkpt>
      <trkpt lat="44.99485" lon="4.50681">
        <ele>548</ele>
        <time>2015-12-08T09:57:21Z</time>
      </trkpt>
      <trkpt lat="44.99482" lon="4.50709">
        <ele>546</ele>
        <time>2015-12-08T09:57:25Z</time>
      </trkpt>
      <trkpt lat="44.99476" lon="4.50728">
        <ele>544</ele>
        <time>2015-12-08T09:57:28Z</time>
      </trkpt>
      <trkpt lat="44.9947" lon="4.50742">
        <ele>542</ele>
        <time>2015-12-08T09:57:31Z</time>
      </trkpt>
      <trkpt lat="44.99459" lon="4.50764">
        <ele>539</ele>
        <time>2015-12-08T09:57:35Z</time>
      </trkpt>
      <trkpt lat="44.99445" lon="4.50785">
        <ele>535</ele>
        <time>2015-12-08T09:57:39Z</time>
      </trkpt>
      <trkpt lat="44.99433" lon="4.50809">
        <ele>530</ele>
        <time>2015-12-08T09:57:44Z</time>
      </trkpt>
      <trkpt lat="44.99423" lon="4.50828">
        <ele>525</ele>
        <time>2015-12-08T09:57:49Z</time>
      </trkpt>
      <trkpt lat="44.99416" lon="4.50847">
        <ele>522</ele>
        <time>2015-12-08T09:57:54Z</time>
      </trkpt>
      <trkpt lat="44.99406" lon="4.50859">
        <ele>519</ele>
        <time>2015-12-08T09:57:58Z</time>
      </trkpt>
      <trkpt lat="44.994" lon="4.5087">
        <ele>519</ele>
        <time>2015-12-08T09:58:01Z</time>
      </trkpt>
      <trkpt lat="44.99385" lon="4.50896">
        <ele>517</ele>
        <time>2015-12-08T09:58:05Z</time>
      </trkpt>
      <trkpt lat="44.99366" lon="4.50928">
        <ele>514</ele>
        <time>2015-12-08T09:58:09Z</time>
      </trkpt>
      <trkpt lat="44.99351" lon="4.50959">
        <ele>511</ele>
        <time>2015-12-08T09:58:13Z</time>
      </trkpt>
      <trkpt lat="44.9935" lon="4.5099">
        <ele>510</ele>
        <time>2015-12-08T09:58:17Z</time>
      </trkpt>
      <trkpt lat="44.99359" lon="4.51012">
        <ele>508</ele>
        <time>2015-12-08T09:58:21Z</time>
      </trkpt>
      <trkpt lat="44.99368" lon="4.5103">
        <ele>507</ele>
        <time>2015-12-08T09:58:25Z</time>
      </trkpt>
      <trkpt lat="44.99374" lon="4.51048">
        <ele>506</ele>
        <time>2015-12-08T09:58:28Z</time>
      </trkpt>
      <trkpt lat="44.99388" lon="4.51081">
        <ele>504</ele>
        <time>2015-12-08T09:58:32Z</time>
      </trkpt>
      <trkpt lat="44.994" lon="4.51114">
        <ele>501</ele>
        <time>2015-12-08T09:58:36Z</time>
      </trkpt>
      <trkpt lat="44.99411" lon="4.51143">
        <ele>497</ele>
        <time>2015-12-08T09:58:40Z</time>
      </trkpt>
      <trkpt lat="44.99427" lon="4.51158">
        <ele>493</ele>
        <time>2015-12-08T09:58:43Z</time>
      </trkpt>
      <trkpt lat="44.99451" lon="4.51166">
        <ele>488</ele>
        <time>2015-12-08T09:58:47Z</time>
      </trkpt>
      <trkpt lat="44.9948" lon="4.51175">
        <ele>483</ele>
        <time>2015-12-08T09:58:52Z</time>
      </trkpt>
      <trkpt lat="44.99493" lon="4.51183">
        <ele>480</ele>
        <time>2015-12-08T09:58:56Z</time>
      </trkpt>
      <trkpt lat="44.99503" lon="4.51197">
        <ele>477</ele>
        <time>2015-12-08T09:59:00Z</time>
      </trkpt>
      <trkpt lat="44.99512" lon="4.51217">
        <ele>473</ele>
        <time>2015-12-08T09:59:05Z</time>
      </trkpt>
      <trkpt lat="44.99518" lon="4.51234">
        <ele>470</ele>
        <time>2015-12-08T09:59:09Z</time>
      </trkpt>
      <trkpt lat="44.99521" lon="4.5125">
        <ele>470</ele>
        <time>2015-12-08T09:59:13Z</time>
      </trkpt>
      <trkpt lat="44.99525" lon="4.51265">
        <ele>469</ele>
        <time>2015-12-08T09:59:17Z</time>
      </trkpt>
      <trkpt lat="44.99529" lon="4.51279">
        <ele>467</ele>
        <time>2015-12-08T09:59:22Z</time>
      </trkpt>
      <trkpt lat="44.99537" lon="4.51293">
        <ele>466</ele>
        <time>2015-12-08T09:59:27Z</time>
      </trkpt>
      <trkpt lat="44.99542" lon="4.51299">
        <ele>465</ele>
        <time>2015-12-08T09:59:30Z</time>
      </trkpt>
      <trkpt lat="44.99549" lon="4.51309">
        <ele>463</ele>
        <time>2015-12-08T09:59:34Z</time>
      </trkpt>
      <trkpt lat="44.99554" lon="4.51314">
        <ele>461</ele>
        <time>2015-12-08T09:59:37Z</time>
      </trkpt>
      <trkpt lat="44.99565" lon="4.51323">
        <ele>458</ele>
        <time>2015-12-08T09:59:42Z</time>
      </trkpt>
      <trkpt lat="44.99576" lon="4.51328">
        <ele>456</ele>
        <time>2015-12-08T09:59:47Z</time>
      </trkpt>
      <trkpt lat="44.99588" lon="4.51327">
        <ele>455</ele>
        <time>2015-12-08T09:59:52Z</time>
      </trkpt>
      <trkpt lat="44.99598" lon="4.51315">
        <ele>454</ele>
        <time>2015-12-08T09:59:57Z</time>
      </trkpt>
      <trkpt lat="44.99602" lon="4.5131">
        <ele>453</ele>
        <time>2015-12-08T10:00:01Z</time>
      </trkpt>
      <trkpt lat="44.9961" lon="4.51311">
        <ele>451</ele>
        <time>2015-12-08T10:00:06Z</time>
      </trkpt>
      <trkpt lat="44.99617" lon="4.51315">
        <ele>451</ele>
        <time>2015-12-08T10:00:10Z</time>
      </trkpt>
      <trkpt lat="44.99625" lon="4.51317">
        <ele>451</ele>
        <time>2015-12-08T10:00:13Z</time>
      </trkpt>
      <trkpt lat="44.99627" lon="4.51329">
        <ele>449</ele>
        <time>2015-12-08T10:00:18Z</time>
      </trkpt>
      <trkpt lat="44.99623" lon="4.51337">
        <ele>445</ele>
        <time>2015-12-08T10:00:25Z</time>
      </trkpt>
      <trkpt lat="44.99619" lon="4.51347">
        <ele>442</ele>
        <time>2015-12-08T10:00:30Z</time>
      </trkpt>
      <trkpt lat="44.99616" lon="4.51363">
        <ele>442</ele>
        <time>2015-12-08T10:00:34Z</time>
      </trkpt>
      <trkpt lat="44.99608" lon="4.51399">
        <ele>440</ele>
        <time>2015-12-08T10:00:38Z</time>
      </trkpt>
      <trkpt lat="44.99597" lon="4.51448">
        <ele>437</ele>
        <time>2015-12-08T10:00:42Z</time>
      </trkpt>
      <trkpt lat="44.99587" lon="4.5147">
        <ele>434</ele>
        <time>2015-12-08T10:00:47Z</time>
      </trkpt>
      <trkpt lat="44.99566" lon="4.51465">
        <ele>431</ele>
        <time>2015-12-08T10:00:51Z</time>
      </trkpt>
      <trkpt lat="44.99546" lon="4.51465">
        <ele>429</ele>
        <time>2015-12-08T10:00:55Z</time>
      </trkpt>
      <trkpt lat="44.99531" lon="4.51484">
        <ele>427</ele>
        <time>2015-12-08T10:00:59Z</time>
      </trkpt>
      <trkpt lat="44.99525" lon="4.51517">
        <ele>425</ele>
        <time>2015-12-08T10:01:03Z</time>
      </trkpt>
      <trkpt lat="44.99524" lon="4.51562">
        <ele>422</ele>
        <time>2015-12-08T10:01:08Z</time>
      </trkpt>
      <trkpt lat="44.99522" lon="4.51596">
        <ele>420</ele>
        <time>2015-12-08T10:01:12Z</time>
      </trkpt>
      <trkpt lat="44.99516" lon="4.51626">
        <ele>418</ele>
        <time>2015-12-08T10:01:17Z</time>
      </trkpt>
      <trkpt lat="44.99503" lon="4.51638">
        <ele>416</ele>
        <time>2015-12-08T10:01:21Z</time>
      </trkpt>
      <trkpt lat="44.99494" lon="4.51641">
        <ele>414</ele>
        <time>2015-12-08T10:01:25Z</time>
      </trkpt>
      <trkpt lat="44.99493" lon="4.51641">
        <ele>414</ele>
        <time>2015-12-08T10:01:48Z</time>
      </trkpt>
      <trkpt lat="44.99493" lon="4.51641">
        <ele>414</ele>
        <time>2015-12-08T10:01:50Z</time>
      </trkpt>
    </trkseg>
  </trk>
</gpx>